• Join FlightAware (Why Join?)
  • Login
  • US Flag 
10:01PM EDT


 

Airport Tracker/Info


-or-


 

Live Flight TrackerFlight Track Log ✈ SIA21 ✈ 09-Nov-2013 ✈ KEWR - WSSS / SIN

Flight Track Log - Related Links

Times and Time Zones

All times are in EST time to prevent confusion due to time zone crossing. See the SIA21 flight status page for this flight to view local times or setup timezone preferences in your user account.

Time Position Orientation Groundspeed Altitude Reporting Facility
EST Latitude Longitude Course Direction KTS MPH feet Rate Location/Type
11:11PM 40.6615 -74.1844 66° East 180 207 900  Level FlightAware ADS-B
11:11PM 40.6568 -74.1866 200° South 176 203 1,200 2,520 Climbing FlightAware ADS-B
11:12PM 40.6412 -74.1910 192° South 163 188 2,000 2,040 Climbing FlightAware ADS-B
11:12PM 40.6391 -74.1922 203° Southwest 163 188 2,000  Level FlightAware ADS-B
11:12PM 40.6371 -74.1937 210° Southwest 164 189 2,000 600 Level FlightAware ADS-B
11:12PM 40.6332 -74.1981 221° Southwest 166 191 2,100 480 Climbing FlightAware ADS-B
11:12PM 40.6310 -74.2032 240° Southwest 167 192 2,100  Level FlightAware ADS-B
11:12PM 40.6302 -74.2072 255° West 171 197 2,100 840 Level FlightAware ADS-B
11:12PM 40.6300 -74.2103 265° West 174 200 2,200 720 Climbing FlightAware ADS-B
11:12PM 40.6304 -74.2151 276° West 180 207 2,200 840 Level FlightAware ADS-B
11:13PM 40.6382 -74.2307 303° West 200 230 2,500 900 Climbing FlightAware ADS-B
11:13PM 40.6467 -74.2389 324° Northwest 214 246 2,600 1,020 Climbing FlightAware ADS-B
11:14PM 40.7217 -74.2167 13° North 297 342 3,900 1,080 Climbing FlightAware ADS-B
11:14PM 40.7403 -74.2010 33° Northeast 305 351 4,200 1,740 Climbing FlightAware ADS-B
11:14PM 40.7586 -74.1854 33° Northeast 306 352 4,800 2,040 Climbing FlightAware ADS-B
11:15PM 40.7779 -74.1689 33° Northeast 306 352 5,300 2,220 Climbing FlightAware ADS-B
11:15PM 40.7962 -74.1528 34° Northeast 303 349 6,000 2,700 Climbing FlightAware ADS-B
11:15PM 40.8042 -74.1454 35° Northeast 302 348 6,300 2,460 Climbing FlightAware ADS-B
11:15PM 40.8097 -74.1396 39° Northeast 303 349 6,500 1,680 Climbing FlightAware ADS-B
11:15PM 40.8257 -74.1201 43° Northeast 308 354 6,900 1,560 Climbing FlightAware ADS-B
11:16PM 40.8449 -74.0961 43° Northeast 311 358 7,400 1,980 Climbing FlightAware ADS-B
11:16PM 40.8610 -74.0759 43° Northeast 311 358 8,000 2,100 Climbing FlightAware ADS-B
11:16PM 40.8770 -74.0562 43° Northeast 311 358 8,500 1,500 Climbing FlightAware ADS-B
11:16PM 40.8933 -74.0366 42° Northeast 317 365 8,800 1,380 Climbing FlightAware ADS-B
11:17PM 40.9096 -74.0168 43° Northeast 320 368 9,200 1,500 Climbing FlightAware ADS-B
11:17PM 40.9540 -73.9620 43° Northeast 331 381 10,200 1,320 Climbing FlightAware
11:18PM 40.9704 -73.9422 42° Northeast 338 389 10,400 780 Climbing FlightAware ADS-B
11:18PM 41.0073 -73.8977 42° Northeast 361 415 10,800 780 Climbing FlightAware ADS-B
11:19PM 41.0456 -73.8505 43° Northeast 380 437 11,200 900 Climbing FlightAware ADS-B
11:19PM 41.0900 -73.7959 43° Northeast 393 452 11,800 1,380 Climbing FlightAware ADS-B
11:20PM 41.1900 -73.6730 43° Northeast 401 461 13,800 1,680 Climbing FlightAware
11:21PM 41.2209 -73.6375 41° Northeast 397 457 14,500 1,380 Climbing FlightAware ADS-B (KSNC)
11:21PM 41.2700 -73.5952 33° Northeast 406 467 15,000 960 Climbing FlightAware ADS-B (KSNC)
11:22PM 41.3350 -73.5421 32° Northeast 415 478 15,700 960 Climbing FlightAware ADS-B (KSNC)
11:22PM 41.3843 -73.5020 31° Northeast 427 491 16,200 1,260 Climbing FlightAware ADS-B (KSNC)
11:23PM 41.4430 -73.4536 32° Northeast 428 493 17,200 1,500 Climbing FlightAware ADS-B (KSNC)
11:24PM 41.5184 -73.3913 32° Northeast 428 493 18,100 1,260 Climbing FlightAware ADS-B (KSNC)
11:24PM 41.5827 -73.3382 32° Northeast 437 503 18,900 1,140 Climbing FlightAware ADS-B (KSNC)
11:25PM 41.6609 -73.2734 32° Northeast 441 507 19,700 1,200 Climbing FlightAware ADS-B (KSNC)
11:26PM 41.7144 -73.2289 32° Northeast 443 510 20,400 1,080 Climbing FlightAware ADS-B (KSNC)
11:26PM 41.7621 -73.1892 32° Northeast 451 519 20,800 660 Climbing FlightAware ADS-B (KSNC)
11:27PM 41.8233 -73.1382 32° Northeast 462 532 21,100 780 Climbing FlightAware ADS-B (KSNC)
11:27PM 41.8998 -73.0742 32° Northeast 470 541 21,800 780 Climbing FlightAware ADS-B (KSNC)
11:28PM 41.9567 -73.0263 32° Northeast 475 547 22,100 840 Climbing FlightAware ADS-B (KSNC)
11:29PM 42.0570 -72.9420 32° Northeast 483 556 23,000 1,020 Climbing FlightAware
11:29PM 42.1008 -72.9050 32° Northeast 487 560 23,400 960 Climbing FlightAware ADS-B (KSNC)
11:30PM 42.1611 -72.8539 32° Northeast 488 562 23,900 1,080 Climbing FlightAware ADS-B (KSNC)
11:30PM 42.2314 -72.7942 32° Northeast 484 557 24,700 1,020 Climbing FlightAware ADS-B (KSNC)
11:31PM 42.2890 -72.7453 32° Northeast 486 559 25,100 660 Climbing FlightAware ADS-B (KSNC)
11:31PM 42.3460 -72.6970 32° Northeast 491 565 25,400 720 Climbing FlightAware ADS-B (KSNC)
11:32PM 42.4213 -72.6326 32° Northeast 493 567 26,000 660 Climbing FlightAware ADS-B (KSNC)
11:33PM 42.4837 -72.5792 32° Northeast 499 574 26,200 480 Climbing FlightAware ADS-B
11:33PM 42.5597 -72.5140 32° Northeast 505 581 26,600 600 Climbing FlightAware ADS-B (KSNC)
11:34PM 42.6080 -72.4725 32° Northeast 509 586 26,900 660 Climbing FlightAware ADS-B (KSNC)
11:34PM 42.6748 -72.4148 32° Northeast 511 588 27,300 840 Climbing FlightAware ADS-B (KSNC)
11:35PM 42.7567 -72.3440 32° Northeast 512 589 27,900 900 Climbing FlightAware ADS-B (KSNC)
11:35PM 42.8169 -72.2918 32° Northeast 513 590 28,400 960 Climbing FlightAware ADS-B (KSNC)
11:36PM 42.8842 -72.2333 32° Northeast 514 592 28,900 1,020 Climbing FlightAware ADS-B
11:36PM 42.9460 -72.1793 33° Northeast 512 589 29,500 720 Climbing FlightAware ADS-B
11:37PM 43.0084 -72.1248 33° Northeast 516 594 29,700 540 Climbing FlightAware ADS-B
11:37PM 43.0684 -72.0724 33° Northeast 518 596 30,100 660 Climbing FlightAware ADS-B
11:38PM 43.1303 -72.0180 33° Northeast 516 594 30,400 480 Climbing FlightAware ADS-B
11:39PM 43.2032 -71.9538 33° Northeast 525 604 30,700 660 Climbing FlightAware ADS-B
11:39PM 43.2673 -71.8972 33° Northeast 522 601 31,200 1,200 Climbing FlightAware ADS-B (KBOS)
11:39PM 43.3123 -71.8573 33° Northeast 506 582 31,800 780 Climbing FlightAware ADS-B
11:40PM 43.3880 -71.7902 33° Northeast 506 582 32,000 120 Climbing FlightAware ADS-B (KBOS)
11:41PM 43.4391 -71.7448 33° Northeast 508 585 32,000  Level FlightAware ADS-B (KBOS)
11:41PM 43.5084 -71.6832 33° Northeast 505 581 32,000  Level FlightAware ADS-B
11:41PM 43.5464 -71.6493 33° Northeast 505 581 32,000  Level FlightAware ADS-B
11:42PM 43.5690 -71.6291 33° Northeast 504 580 32,000  Level FlightAware ADS-B
11:42PM 43.6272 -71.5768 33° Northeast 502 578 32,000  Level FlightAware ADS-B
11:43PM 43.6838 -71.5260 33° Northeast 502 578 32,000  Level FlightAware ADS-B (KBOS)
11:43PM 43.7402 -71.4754 33° Northeast 502 578 32,000  Level FlightAware ADS-B (KBOS)
11:44PM 43.8023 -71.4194 33° Northeast 502 578 32,000  Level FlightAware ADS-B
11:44PM 43.8601 -71.3671 33° Northeast 500 575 32,000  Level FlightAware ADS-B (KBOS)
11:45PM 43.9170 -71.3156 33° Northeast 501 577 32,000  Level FlightAware ADS-B
11:45PM 43.9833 -71.2554 33° Northeast 501 577 32,000  Level FlightAware ADS-B (KBOS)
11:46PM 44.0739 -71.1728 33° Northeast 501 577 32,000  Level FlightAware ADS-B
11:46PM 44.1309 -71.1208 33° Northeast 503 579 32,000  Level FlightAware ADS-B
11:47PM 44.2089 -71.0492 33° Northeast 502 578 32,000  Level FlightAware ADS-B
11:48PM 44.2865 -70.9780 33° Northeast 499 574 32,000  Level FlightAware ADS-B
11:48PM 44.2661 -70.9968 213° Southwest 498 573 32,000  Level FlightAware ADS-B (KBOS)
11:49PM 44.4012 -70.8721 33° Northeast 498 573 32,000 240 Level FlightAware ADS-B (CYQI)
11:50PM 44.5787 -70.7072 33° Northeast 492 566 32,500 360 Climbing FlightAware ADS-B (KBOS)
11:51PM 44.6424 -70.6479 34° Northeast 492 566 32,700 360 Climbing FlightAware ADS-B (KBOS)
11:52PM 44.7167 -70.5782 34° Northeast 487 560 33,000 240 Climbing FlightAware ADS-B (CYSG)
11:52PM 44.7706 -70.5277 34° Northeast 494 568 33,000  Level FlightAware ADS-B (CYSG)
11:53PM 44.8555 -70.4479 34° Northeast 500 575 33,000  Level FlightAware ADS-B (CYSG)
11:53PM 44.9278 -70.3794 34° Northeast 499 574 33,000  Level FlightAware ADS-B (CYSG)
11:54PM 44.9297 -70.3776 33° Northeast 498 573 33,000  Level FlightAware ADS-B (CYSG)
11:55PM 45.0620 -70.2522 34° Northeast 507 583 33,000  Level FlightAware ADS-B (CYSG)
11:55PM 45.1740 -70.1460 34° Northeast 505 581 33,000  Level FlightAware
11:56PM 45.0620 -70.2522 214° Southwest 501 577 33,000  Level FlightAware ADS-B (KBGR)
11:56PM 45.1389 -70.1789 34° Northeast 500 575 33,000  Level FlightAware ADS-B (CYSG)
11:57PM 45.1389 -70.1789 34° Northeast 498 573 33,000  Level FlightAware ADS-B (KBGR)
11:58PM 45.3029 -70.0217 34° Northeast 498 573 33,000  Level FlightAware ADS-B (CYQI)
11:59PM 45.5453 -69.7875 34° Northeast 500 575 33,000  Level FlightAware ADS-B (CYSG)
12:00AM 45.6347 -69.7004 34° Northeast 498 573 33,000  Level FlightAware ADS-B (CYSG)
12:00AM 45.6945 -69.6419 34° Northeast 492 566 33,000  Level FlightAware ADS-B (CYSG)
12:01AM 45.7458 -69.5917 34° Northeast 490 564 33,000  Level FlightAware ADS-B (CYSG)
12:01AM 45.8230 -69.5160 34° Northeast 491 565 33,000  Level FlightAware
12:02AM 45.8646 -69.4750 34° Northeast 491 565 33,000  Level FlightAware ADS-B (CYSG)
12:02AM 45.9254 -69.4149 35° Northeast 494 568 33,000  Level FlightAware ADS-B (CYSG)
12:03AM 46.0251 -69.3160 35° Northeast 482 555 33,000  Level FlightAware ADS-B (CYSG)
12:03AM 46.0807 -69.2607 35° Northeast 471 542 33,000  Level FlightAware ADS-B (CYSG)
12:04AM 46.1580 -69.1839 35° Northeast 474 545 33,000  Level FlightAware ADS-B (CYSG)
12:05AM 46.2170 -69.1250 35° Northeast 468 539 33,000  Level FlightAware
12:06AM 46.3030 -69.0390 35° Northeast 471 542 33,000  Level FlightAware
12:06AM 46.3860 -68.9550 35° Northeast 470 541 33,000  Level FlightAware
12:07AM 46.4560 -68.8840 35° Northeast 467 537 33,000  Level FlightAware
12:08AM 46.5660 -68.7730 35° Northeast 470 541 33,000  Level FlightAware
12:09AM 46.6150 -68.7230 35° Northeast 472 543 33,000  Level FlightAware
12:09AM 46.7050 -68.6300 35° Northeast 469 540 33,000  Level FlightAware
12:10AM 46.7550 -68.5790 35° Northeast 464 534 33,000  Level FlightAware
12:11AM 46.9030 -68.4270 35° Northeast 469 540 33,000  Level FlightAware
12:12AM 46.9443 -68.3845 35° Northeast 470 541 33,000  Level FlightAware ADS-B (CYSG)
12:12AM 47.0216 -68.3043 35° Northeast 467 537 33,000  Level FlightAware ADS-B (CYSG)
12:13AM 47.0805 -68.2431 35° Northeast 469 540 33,000  Level FlightAware ADS-B (CYSG)
12:14AM 47.1565 -68.1638 35° Northeast 478 550 33,000  Level FlightAware ADS-B (CYSG)
12:14AM 47.2341 -68.0826 35° Northeast 477 549 33,000  Level FlightAware ADS-B (CYSG)
12:15AM 47.2906 -68.0230 36° Northeast 475 547 33,000  Level FlightAware ADS-B (CYSG)
12:15AM 47.3329 -67.9785 35° Northeast 472 543 33,000  Level FlightAware ADS-B (CYSG)
12:16AM 47.4107 -67.8964 36° Northeast 467 537 33,000  Level FlightAware ADS-B (CYSG)
12:17AM 47.4640 -67.8399 36° Northeast 469 540 33,000  Level FlightAware ADS-B (CYSG)
12:17AM 47.5330 -67.7660 36° Northeast 468 539 33,000  Level FlightAware
12:18AM 47.6560 -67.6040 42° Northeast 465 535 33,000  Level FlightAware
12:19AM 47.7130 -67.5300 41° Northeast 465 535 33,000  Level FlightAware
12:20AM 47.8000 -67.4160 41° Northeast 466 536 33,000  Level FlightAware
12:21AM 47.8860 -67.3000 42° Northeast 463 533 33,000  Level FlightAware
12:22AM 47.9900 -67.1620 42° Northeast 463 533 33,000  Level FlightAware
12:23AM 48.0870 -67.0310 42° Northeast 463 533 33,000  Level FlightAware
12:24AM 48.1590 -66.9350 42° Northeast 465 535 33,000  Level FlightAware
12:24AM 48.2210 -66.8490 43° Northeast 467 537 33,000  Level FlightAware
12:25AM 48.3080 -66.7310 42° Northeast 466 536 33,000  Level FlightAware
12:26AM 48.3800 -66.6330 42° Northeast 466 536 33,000  Level FlightAware
12:27AM 48.4640 -66.5190 42° Northeast 472 543 33,000  Level FlightAware
12:28AM 48.5270 -66.4310 43° Northeast 472 543 33,000  Level FlightAware
12:28AM 48.6060 -66.3220 42° Northeast 472 543 33,000  Level FlightAware
12:29AM 48.6750 -66.2250 43° Northeast 471 542 33,000  Level FlightAware
12:30AM 48.7320 -66.1470 42° Northeast 469 540 33,000  Level FlightAware
12:31AM 48.8170 -66.0280 43° Northeast 470 541 33,000  Level FlightAware
12:31AM 48.8930 -65.9210 43° Northeast 470 541 33,000  Level FlightAware
12:32AM 48.9680 -65.8150 43° Northeast 470 541 33,000  Level FlightAware
12:33AM 49.0210 -65.7400 43° Northeast 470 541 33,000  Level FlightAware
12:34AM 49.1030 -65.6230 43° Northeast 468 539 33,000  Level FlightAware
12:34AM 49.1850 -65.5050 43° Northeast 465 535 33,000  Level FlightAware
12:35AM 49.2290 -65.4420 43° Northeast 464 534 33,000  Level FlightAware
12:36AM 49.3040 -65.3340 43° Northeast 464 534 33,000  Level FlightAware
12:36AM 49.3770 -65.2280 43° Northeast 465 535 33,000  Level FlightAware
12:37AM 49.4660 -65.0990 43° Northeast 465 535 33,000  Level FlightAware
12:38AM 49.5540 -64.9700 44° Northeast 464 534 33,000  Level FlightAware
12:39AM 49.6230 -64.8690 43° Northeast 465 535 33,000  Level FlightAware
12:40AM 49.6820 -64.7820 44° Northeast 466 536 33,000  Level FlightAware
12:40AM 49.7320 -64.7080 44° Northeast 464 534 33,000  Level FlightAware
12:41AM 49.8100 -64.5920 44° Northeast 464 534 33,000  Level FlightAware
12:42AM 49.8680 -64.5060 44° Northeast 463 533 33,000  Level FlightAware
12:42AM 49.9250 -64.4200 44° Northeast 464 534 33,000  Level FlightAware
12:43AM 49.9900 -64.3240 44° Northeast 464 534 33,000  Level FlightAware
12:44AM 50.0680 -64.2050 44° Northeast 464 534 33,000  Level FlightAware
12:45AM 50.1310 -64.1110 44° Northeast 464 534 33,000  Level FlightAware
12:46AM 50.1790 -64.0390 44° Northeast 464 534 33,000  Level FlightAware
12:46AM 50.2260 -63.9680 44° Northeast 464 534 33,000  Level FlightAware
12:47AM 50.2570 -63.9200 45° Northeast 464 534 33,000  Level FlightAware
12:47AM 50.3050 -63.8490 43° Northeast 464 534 33,000  Level FlightAware
12:48AM 50.3830 -63.7300 44° Northeast 464 534 33,000  Level FlightAware
12:49AM 50.4630 -63.6080 44° Northeast 464 534 33,000  Level FlightAware
12:50AM 50.5260 -63.5130 44° Northeast 464 534 33,000  Level FlightAware
12:51AM 50.5890 -63.4170 44° Northeast 464 534 33,000  Level FlightAware
12:52AM 50.6520 -63.3210 44° Northeast 464 534 33,000  Level FlightAware
12:52AM 50.7000 -63.2490 44° Northeast 464 534 33,000  Level FlightAware
12:53AM 50.8833 -62.9333 44° Northeast 470 541 33,000  Level Gander Center
12:54AM 50.9500 -62.8000 52° Northeast 470 541 33,000  Level Gander Center
12:55AM 51.0500 -62.6333 46° Northeast 470 541 33,000  Level Gander Center
12:56AM 51.1333 -62.5000 45° Northeast 470 541 33,000  Level Gander Center
12:57AM 51.2333 -62.3500 43° Northeast 470 541 33,000  Level Gander Center
12:58AM 51.3167 -62.2000 48° Northeast 470 541 33,000  Level Gander Center
12:59AM 51.4000 -62.0667 45° Northeast 470 541 33,000  Level Gander Center
01:00AM 51.5000 -61.9000 46° Northeast 470 541 33,000  Level Gander Center
01:01AM 51.5833 -61.7667 45° Northeast 470 541 33,000  Level Gander Center
01:02AM 51.6667 -61.6000 51° Northeast 460 529 33,000  Level Gander Center
01:03AM 51.7667 -61.4500 43° Northeast 470 541 33,000  Level Gander Center
01:04AM 51.8500 -61.3167 45° Northeast 470 541 33,000  Level Gander Center
01:05AM 51.9667 -61.1500 41° Northeast 470 541 33,000  Level Gander Center
01:06AM 52.0333 -60.9833 57° Northeast 470 541 33,000  Level Gander Center
01:07AM 52.1167 -60.8167 51° Northeast 470 541 33,000  Level Gander Center
01:08AM 52.2000 -60.6833 44° Northeast 470 541 33,000  Level Gander Center
01:09AM 52.2833 -60.5167 51° Northeast 470 541 33,000  Level Gander Center
01:10AM 52.3833 -60.3500 45° Northeast 470 541 33,000  Level Gander Center
01:11AM 52.4667 -60.1833 51° Northeast 470 541 33,000  Level Gander Center
01:12AM 52.5667 -60.0167 45° Northeast 470 541 33,000  Level Gander Center
01:13AM 52.6500 -59.8833 44° Northeast 470 541 33,000  Level Gander Center
01:14AM 52.7333 -59.7000 53° Northeast 470 541 33,000  Level Gander Center
01:15AM 52.8167 -59.5333 50° Northeast 470 541 33,000  Level Gander Center
01:16AM 52.9167 -59.3667 45° Northeast 470 541 33,000  Level Gander Center
01:17AM 53.0000 -59.2000 50° Northeast 470 541 33,000  Level Gander Center
01:18AM 53.0667 -59.0333 56° Northeast 470 541 33,000  Level Gander Center
01:19AM 53.1500 -58.8833 47° Northeast 480 552 33,000  Level Gander Center
01:20AM 53.2500 -58.6833 50° Northeast 480 552 33,000  Level Gander Center
01:21AM 53.3333 -58.5333 47° Northeast 480 552 33,000  Level Gander Center
01:22AM 53.4167 -58.3667 50° Northeast 480 552 33,000  Level Gander Center
01:23AM 53.5000 -58.1833 53° Northeast 480 552 33,000  Level Gander Center
01:24AM 53.5833 -58.0167 50° Northeast 480 552 33,000  Level Gander Center
01:25AM 53.6833 -57.8333 47° Northeast 480 552 33,000  Level Gander Center
01:26AM 53.7667 -57.6667 50° Northeast 480 552 33,000  Level Gander Center
01:27AM 53.8333 -57.4833 58° Northeast 470 541 33,000  Level Gander Center
01:28AM 53.9333 -57.3000 47° Northeast 480 552 33,000  Level Gander Center
01:29AM 54.0167 -57.1333 50° Northeast 480 552 33,000  Level Gander Center
01:30AM 54.0833 -56.9500 58° Northeast 480 552 33,000  Level Gander Center
01:31AM 54.1667 -56.8000 46° Northeast 480 552 33,000  Level Gander Center
01:32AM 54.2667 -56.5833 52° Northeast 480 552 33,000  Level Gander Center
01:33AM 54.3333 -56.4333 53° Northeast 480 552 33,000  Level Gander Center
01:34AM 54.4333 -56.2500 47° Northeast 480 552 33,000  Level Gander Center
01:35AM 54.5000 -56.0667 58° Northeast 480 552 33,000  Level Gander Center
01:36AM 54.5833 -55.8833 52° Northeast 470 541 33,000  Level Gander Center
01:37AM 54.6667 -55.7000 52° Northeast 470 541 33,000  Level Gander Center
01:38AM 54.7500 -55.5500 46° Northeast 480 552 33,000  Level Gander Center
01:39AM 54.8167 -55.3333 62° Northeast 480 552 33,000  Level Gander Center
01:40AM 54.9167 -55.1667 44° Northeast 480 552 33,000  Level Gander Center
01:41AM 54.9833 -54.9833 58° Northeast 480 552 33,000  Level Gander Center
01:42AM 55.0833 -54.8000 46° Northeast 490 564 33,000  Level Gander Center
01:43AM 55.1500 -54.6167 57° Northeast 480 552 33,000  Level Gander Center
01:44AM 55.2500 -54.4167 49° Northeast 480 552 33,000  Level Gander Center
01:45AM 55.3167 -54.2000 62° Northeast 490 564 33,000  Level Gander Center
01:46AM 55.4000 -54.0333 49° Northeast 490 564 33,000  Level Gander Center
01:47AM 55.4667 -53.8500 57° Northeast 490 564 33,000  Level Gander Center
01:48AM 55.5500 -53.6167 58° Northeast 480 552 33,000  Level Gander Center
01:49AM 55.6167 -53.4333 57° Northeast 480 552 33,000  Level Gander Center
01:50AM 55.7000 -53.2667 48° Northeast 490 564 33,000  Level Gander Center
01:51AM 55.7833 -53.0667 53° Northeast 490 564 33,000  Level Gander Center
01:52AM 55.8500 -52.8833 57° Northeast 490 564 33,000  Level Gander Center
01:53AM 55.9500 -52.6833 48° Northeast 490 564 33,000  Level Gander Center
01:54AM 56.0167 -52.4833 59° Northeast 490 564 33,000  Level Gander Center
01:55AM 56.0833 -52.2833 59° Northeast 490 564 33,000  Level Gander Center
01:56AM 56.1667 -52.0833 53° Northeast 490 564 33,000  Level Gander Center
01:57AM 56.2333 -51.8833 59° Northeast 490 564 33,000  Level Gander Center
01:58AM 56.3333 -51.6833 48° Northeast 490 564 33,000  Level Gander Center
01:59AM 56.4167 -51.4833 53° Northeast 490 564 33,000  Level Gander Center
02:01AM 56.6306 -51.2737 28° Northeast  Level Estimated
02:08AM 57.4226 -50.4733 28° Northeast  Level Estimated
02:09AM 57.5354 -50.3561 29° Northeast  Level Estimated
02:10AM 57.6480 -50.2382 29° Northeast  Level Estimated
02:10AM 57.1667 -49.1500 30° Northeast 490 564 33,000  Level Gander Center
02:11AM 57.7605 -50.1196 29° Northeast  Level Estimated
02:11AM 57.2333 -48.9000 64° Northeast 490 564 33,000  Level Gander Center
02:12AM 57.8729 -50.0002 29° Northeast  Level Estimated
02:12AM 57.2833 -48.6667 68° East 490 564 33,000  Level Gander Center
02:13AM 57.9852 -49.8801 30° Northeast  Level Estimated
02:13AM 57.3333 -48.4333 68° East 490 564 33,000  Level Gander Center
02:14AM 58.0973 -49.7592 30° Northeast  Level Estimated
02:14AM 57.4000 -48.2000 62° Northeast 500 575 33,000  Level Gander Center
02:15AM 58.2094 -49.6376 30° Northeast  Level Estimated
02:15AM 57.4333 -47.9667 75° East 510 587 33,000  Level Gander Center
02:16AM 57.5000 -47.7167 64° Northeast 510 587 33,000  Level Gander Center
02:17AM 57.5667 -47.4833 62° Northeast 500 575 33,000  Level Gander Center
02:18AM 57.6000 -47.2333 76° East 500 575 33,000  Level Gander Center
02:19AM 57.6667 -47.0333 58° Northeast 500 575 33,000  Level Gander Center
02:20AM 57.7167 -46.7833 69° East 500 575 33,000  Level Gander Center
02:21AM 57.7667 -46.5500 68° East 500 575 33,000  Level Gander Center
02:22AM 57.8167 -46.3000 69° East 500 575 33,000  Level Gander Center
02:23AM 57.8667 -46.0500 69° East 500 575 33,000  Level Gander Center
02:24AM 57.9167 -45.8167 68° East 500 575 33,000  Level Gander Center
02:25AM 57.9667 -45.5667 69° East 510 587 33,000  Level Gander Center
02:26AM 58.0167 -45.3167 69° East 510 587 33,000  Level Gander Center
02:27AM 58.0833 -45.0667 63° Northeast 510 587 33,000  Level Gander Center
02:28AM 58.1167 -44.8167 76° East 510 587 33,000  Level Gander Center
02:29AM 58.1667 -44.5667 69° East 510 587 33,000  Level Gander Center
02:30AM 58.2167 -44.3000 70° East 510 587 33,000  Level Gander Center
02:31AM 58.2667 -44.0333 70° East 520 598 33,000  Level Gander Center
02:32AM 58.3167 -43.7833 69° East 520 598 33,000  Level Gander Center
02:33AM 58.3500 -43.5500 75° East 510 587 33,000  Level Gander Center
02:34AM 58.4000 -43.2833 70° East 520 598 33,000  Level Gander Center
02:35AM 58.4500 -43.0333 69° East 520 598 33,000  Level Gander Center
02:36AM 58.5000 -42.7833 69° East 520 598 33,000  Level Gander Center
02:37AM 58.5500 -42.5000 71° East 520 598 33,000  Level Gander Center
02:38AM 58.5833 -42.2500 76° East 520 598 33,000  Level Gander Center
02:39AM 58.6333 -41.9833 70° East 520 598 33,000  Level Gander Center
02:40AM 58.6833 -41.7333 69° East 520 598 33,000  Level Gander Center
02:41AM 58.7333 -41.4833 69° East 520 598 33,000  Level Gander Center
02:42AM 58.7667 -41.1833 78° East 520 598 33,000  Level Gander Center
02:43AM 58.8167 -40.9333 69° East 530 610 33,000  Level Gander Center
02:44AM 58.8500 -40.6667 76° East 530 610 33,000  Level Gander Center
02:45AM 58.9000 -40.3833 71° East 530 610 33,000  Level Gander Center
02:46AM 58.9500 -40.1167 70° East 530 610 33,000  Level Gander Center
02:47AM 58.9833 -39.8500 76° East 530 610 33,000  Level Gander Center
02:48AM 59.0167 -39.5667 77° East 530 610 33,000  Level Gander Center
02:49AM 59.0500 -39.3167 75° East 530 610 33,000  Level Gander Center
02:50AM 59.0833 -39.0167 78° East 530 610 33,000  Level Gander Center
02:51AM 59.1333 -38.7500 70° East 530 610 33,000  Level Gander Center
02:52AM 59.1667 -38.4833 76° East 530 610 33,000  Level Gander Center
02:53AM 59.1833 -38.2000 83° East 530 610 33,000  Level Gander Center
02:54AM 59.2333 -37.9333 70° East 540 621 33,000  Level Gander Center
02:55AM 59.2667 -37.6500 77° East 540 621 33,000  Level Gander Center
02:56AM 59.3000 -37.3833 76° East 540 621 33,000  Level Gander Center
02:57AM 59.3333 -37.0833 78° East 540 621 33,000  Level Gander Center
02:58AM 59.3667 -36.7833 78° East 550 633 33,000  Level Gander Center
02:59AM 59.4000 -36.5167 76° East 540 621 33,000  Level Gander Center
03:00AM 59.4333 -36.2167 78° East 540 621 33,000  Level Gander Center
03:01AM 59.4667 -35.9500 76° East 540 621 33,000  Level Gander Center
03:02AM 59.5000 -35.6500 78° East 550 633 33,000  Level Gander Center
03:03AM 59.5333 -35.3500 78° East 550 633 33,000  Level Gander Center
03:04AM 59.5667 -35.0833 76° East 550 633 33,000  Level Gander Center
03:06AM 59.7393 -34.7442 45° Northeast  Level Estimated
03:13AM 60.3730 -33.4528 45° Northeast  Level Estimated
03:14AM 60.4624 -33.2642 46° Northeast  Level Estimated
03:15AM 60.5517 -33.0746 46° Northeast  Level Estimated
03:16AM 60.6406 -32.8839 46° Northeast  Level Estimated
03:17AM 60.7293 -32.6922 47° Northeast  Level Estimated
03:18AM 60.8177 -32.4994 47° Northeast  Level Estimated
03:19AM 60.9058 -32.3055 47° Northeast  Level Estimated
03:20AM 60.9936 -32.1106 47° Northeast  Level Estimated
03:21AM 61.0812 -31.9146 47° Northeast  Level Estimated
03:22AM 61.1685 -31.7175 47° Northeast  Level Estimated
03:23AM 61.2555 -31.5194 48° Northeast  Level Estimated
03:24AM 61.3422 -31.3201 48° Northeast  Level Estimated
03:25AM 61.4286 -31.1197 48° Northeast  Level Estimated
03:26AM 61.5147 -30.9182 48° Northeast  Level Estimated
03:27AM 61.6005 -30.7156 48° Northeast  Level Estimated
03:28AM 61.6860 -30.5119 48° Northeast  Level Estimated
03:29AM 61.7712 -30.3070 49° Northeast  Level Estimated
03:30AM 61.8561 -30.1010 49° Northeast  Level Estimated
03:31AM 61.9407 -29.8939 49° Northeast  Level Estimated
03:32AM 62.0249 -29.6856 49° Northeast  Level Estimated
03:33AM 62.1089 -29.4761 49° Northeast  Level Estimated
03:34AM 62.1925 -29.2655 50° Northeast  Level Estimated
03:35AM 62.2758 -29.0537 50° Northeast  Level Estimated
03:36AM 62.3588 -28.8408 50° Northeast  Level Estimated
03:37AM 62.4415 -28.6267 50° Northeast  Level Estimated
03:38AM 62.5238 -28.4114 50° Northeast  Level Estimated
03:39AM 62.6058 -28.1949 50° Northeast  Level Estimated
03:40AM 62.6875 -27.9772 51° Northeast  Level Estimated
03:41AM 62.7688 -27.7583 51° Northeast  Level Estimated
03:42AM 62.8498 -27.5382 51° Northeast  Level Estimated
03:43AM 62.9305 -27.3168 51° Northeast  Level Estimated
03:44AM 63.0108 -27.0943 51° Northeast  Level Estimated
03:45AM 63.0907 -26.8705 52° Northeast  Level Estimated
03:46AM 63.1703 -26.6455 52° Northeast  Level Estimated
03:47AM 63.2495 -26.4193 52° Northeast  Level Estimated
03:48AM 63.3284 -26.1918 52° Northeast  Level Estimated
03:49AM 63.4069 -25.9631 52° Northeast  Level Estimated
03:50AM 63.4850 -25.7331 53° Northeast  Level Estimated
03:51AM 63.5628 -25.5019 53° Northeast  Level Estimated
03:52AM 63.6402 -25.2694 53° Northeast  Level Estimated
03:53AM 63.7172 -25.0356 53° Northeast  Level Estimated
03:54AM 63.7938 -24.8006 53° Northeast  Level Estimated
03:55AM 63.8701 -24.5642 54° Northeast  Level Estimated
03:56AM 63.9459 -24.3266 54° Northeast  Level Estimated
03:57AM 64.0214 -24.0877 54° Northeast  Level Estimated
03:58AM 64.0965 -23.8476 54° Northeast  Level Estimated
03:59AM 64.1712 -23.6061 55° Northeast  Level Estimated
04:00AM 64.2454 -23.3633 55° Northeast  Level Estimated
04:01AM 64.3193 -23.1192 55° Northeast  Level Estimated
04:02AM 64.3928 -22.8739 55° Northeast  Level Estimated
04:03AM 64.4658 -22.6272 55° Northeast  Level Estimated
04:04AM 64.5385 -22.3791 56° Northeast  Level Estimated
04:05AM 64.6107 -22.1298 56° Northeast  Level Estimated
04:06AM 64.6825 -21.8791 56° Northeast  Level Estimated
04:07AM 64.7538 -21.6271 56° Northeast  Level Estimated
04:08AM 64.8248 -21.3738 57° Northeast  Level Estimated
04:09AM 64.8953 -21.1192 57° Northeast  Level Estimated
04:10AM 64.9654 -20.8632 57° Northeast  Level Estimated
04:11AM 65.0350 -20.6059 57° Northeast  Level Estimated
04:12AM 65.1042 -20.3472 57° Northeast  Level Estimated
04:13AM 65.1729 -20.0872 58° Northeast  Level Estimated
04:14AM 65.2412 -19.8258 58° Northeast  Level Estimated
04:15AM 65.3090 -19.5631 58° Northeast  Level Estimated
04:16AM 65.3764 -19.2990 58° Northeast  Level Estimated
04:17AM 65.4433 -19.0336 59° Northeast  Level Estimated
04:18AM 65.5097 -18.7668 59° Northeast  Level Estimated
04:19AM 65.5757 -18.4987 59° Northeast  Level Estimated
04:20AM 65.6412 -18.2292 59° Northeast  Level Estimated
04:21AM 65.7062 -17.9584 60° Northeast  Level Estimated
04:22AM 65.7707 -17.6861 60° Northeast  Level Estimated
04:23AM 65.8348 -17.4126 60° Northeast  Level Estimated
04:24AM 65.8983 -17.1376 60° Northeast  Level Estimated
04:25AM 65.9614 -16.8614 61° Northeast  Level Estimated
04:26AM 66.0239 -16.5837 61° Northeast  Level Estimated
04:27AM 66.0860 -16.3047 61° Northeast  Level Estimated
04:28AM 66.1475 -16.0243 61° Northeast  Level Estimated
04:29AM 66.2086 -15.7426 62° Northeast  Level Estimated
04:29AM 61.0300 -8.5170 62° Northeast 581 669 33,000  Level FlightAware
04:29AM 61.0340 -8.3600 87° East 582 670 33,000  Level FlightAware
04:30AM 66.2691 -15.4595 62° Northeast  Level Estimated
04:30AM 61.0390 -8.1790 87° East 581 669 33,000  Level FlightAware
04:31AM 61.0460 -7.8570 87° East 578 665 33,000  Level FlightAware
04:32AM 61.0530 -7.4960 88° East 574 661 33,000  Level FlightAware
04:33AM 61.0580 -7.1730 88° East 574 661 33,000  Level FlightAware
04:33AM 61.0610 -7.0350 87° East 572 658 33,000  Level FlightAware
04:34AM 61.0630 -6.8870 88° East 572 658 33,000  Level FlightAware
04:35AM 61.0660 -6.6400 88° East 574 661 33,000  Level FlightAware
04:35AM 61.0690 -6.4120 88° East 573 659 33,000  Level FlightAware
04:36AM 61.0700 -6.2450 89° East 571 657 33,000  Level FlightAware
04:37AM 61.0730 -5.8800 89° East 568 654 33,000  Level FlightAware
04:37AM 61.0740 -5.7170 89° East 564 649 33,000  Level FlightAware
04:39AM 61.0750 -5.4080 89° East 559 643 33,000  Level FlightAware
04:39AM 61.0760 -5.1530 89° East 561 646 33,000  Level FlightAware
04:40AM 61.0760 -4.9430 90° East 561 646 33,000  Level FlightAware
04:40AM 61.0760 -4.7550 90° East 560 644 33,000  Level FlightAware
04:41AM 61.0750 -4.5740 91° East 561 646 33,000  Level FlightAware
04:42AM 61.0740 -4.3430 90° East 561 646 33,000  Level FlightAware
04:43AM 61.0730 -4.0420 90° East 558 642 33,000  Level FlightAware
04:44AM 61.0700 -3.7600 91° East 550 633 33,000  Level FlightAware
04:44AM 61.0680 -3.5630 91° East 549 632 33,000  Level FlightAware
04:45AM 61.0650 -3.2700 91° East 553 636 33,000  Level FlightAware
04:46AM 61.0620 -3.0520 92° East 557 641 33,000  Level FlightAware
04:46AM 61.0590 -2.8430 92° East 555 639 33,000  Level FlightAware
04:47AM 61.0530 -2.5280 92° East 549 632 33,000  Level FlightAware
04:49AM 61.0460 -2.1610 92° East 543 625 33,000  Level FlightAware
04:49AM 61.0420 -1.9700 92° East 538 619 33,000  Level FlightAware
04:50AM 61.0370 -1.7660 93° East 541 623 33,000  Level FlightAware
04:50AM 61.0330 -1.5890 93° East 542 624 33,000  Level FlightAware
04:51AM 61.0280 -1.3880 93° East 542 624 33,000  Level FlightAware
04:52AM 61.0220 -1.1750 93° East 541 623 33,000  Level FlightAware
04:52AM 61.0160 -0.9730 93° East 540 621 33,000  Level FlightAware
04:53AM 61.0110 -0.8060 93° East 540 621 33,000  Level FlightAware
04:54AM 61.0050 -0.6320 94° East 535 616 33,000  Level FlightAware
04:54AM 60.9970 -0.3910 94° East 533 613 33,000  Level FlightAware
04:55AM 60.9900 -0.1960 94° East 532 612 33,000  Level FlightAware
04:56AM 60.9800 0.0160 95° East 536 617 33,000  Level FlightAware
04:57AM 60.9510 0.3540 100° East 526 605 33,000  Level FlightAware
04:57AM 60.9490 0.5140 91° East 527 606 33,000 240 Level FlightAware
04:58AM 60.9460 0.6900 92° East 525 604 33,300 720 Climbing FlightAware
04:59AM 60.9420 0.8600 93° East 527 606 33,900 1,200 Climbing FlightAware
04:59AM 60.9370 1.0870 92° East 521 600 34,900 780 Climbing FlightAware
05:00AM 60.9330 1.2670 93° East 523 602 35,000 60 Climbing FlightAware
05:00AM 60.9290 1.4400 93° East 523 602 35,000  Level FlightAware
05:01AM 60.9240 1.6200 93° East 520 598 35,000  Level FlightAware
05:02AM 60.9200 1.7810 93° East 518 596 35,000  Level FlightAware
05:02AM 60.9160 1.9080 94° East 517 595 35,000  Level FlightAware
05:03AM 60.9110 2.0990 93° East 517 595 35,000  Level FlightAware
05:03AM 60.9030 2.3330 94° East 520 598 35,000  Level FlightAware
05:04AM 60.8980 2.4940 94° East 522 601 35,000  Level FlightAware
05:05AM 60.8920 2.6840 94° East 522 601 35,000  Level FlightAware
05:05AM 60.8850 2.8660 94° East 517 595 35,000  Level FlightAware
05:06AM 60.8790 3.0250 94° East 515 593 35,000  Level FlightAware
05:06AM 60.8730 3.1930 94° East 515 593 35,000  Level FlightAware
05:07AM 60.8660 3.3840 94° East 515 593 35,000  Level FlightAware
05:08AM 60.8590 3.5430 95° East 518 596 35,000  Level FlightAware
05:08AM 60.8520 3.7080 95° East 515 593 35,000  Level FlightAware
05:09AM 60.8450 3.8870 95° East 513 590 35,000  Level FlightAware
05:10AM 60.8350 4.1000 95° East 514 592 35,000  Level FlightAware
05:10AM 60.8270 4.2780 95° East 516 594 35,000  Level FlightAware
05:11AM 60.8150 4.5290 95° East 512 589 35,000  Level FlightAware
05:12AM 60.8020 4.7910 96° East 510 587 35,000  Level FlightAware
05:13AM 60.7920 5.0010 95° East 513 590 35,000  Level FlightAware
05:13AM 60.7820 5.1780 97° East 513 590 35,000  Level FlightAware
05:14AM 60.7700 5.3960 96° East 514 592 35,000  Level FlightAware
05:15AM 60.7610 5.5680 96° East 514 592 35,000  Level FlightAware
05:15AM 60.7474 5.8012 97° East 514 592 35,000  Level FlightAware ADS-B (EGBP)
05:16AM 60.7361 5.9934 97° East 514 592 35,000  Level FlightAware ADS-B (EGBP)
05:17AM 60.7274 6.1369 97° East 510 587 35,000  Level FlightAware ADS-B (EGBP)
05:17AM 60.7185 6.2823 97° East 513 590 35,000  Level FlightAware ADS-B (EGBP)
05:18AM 60.7063 6.4777 97° East 510 587 35,000  Level FlightAware ADS-B (EGBP)
05:18AM 60.6943 6.6646 97° East 508 585 35,000  Level FlightAware ADS-B (EGBP)
05:19AM 60.6849 6.8076 98° East 508 585 35,000  Level FlightAware ADS-B (EGBP)
05:19AM 60.6754 6.9509 98° East 504 580 35,000  Level FlightAware ADS-B (EGBP)
05:20AM 60.6639 7.1204 98° East 502 578 35,000  Level FlightAware ADS-B (EGBP)
05:21AM 60.6530 7.2787 98° East 505 581 35,000  Level FlightAware ADS-B (EGBP)
05:21AM 60.6399 7.4643 98° East 507 583 35,000  Level FlightAware ADS-B (EGBP)
05:22AM 60.6298 7.6057 98° East 507 583 35,000  Level FlightAware ADS-B (EGBP)
05:23AM 60.6150 7.8080 98° East 503 579 35,000  Level FlightAware
05:23AM 60.6020 7.9780 99° East 503 579 35,000  Level FlightAware
05:24AM 60.5910 8.1310 98° East 506 582 35,000  Level FlightAware
05:24AM 60.5740 8.3530 99° East 508 585 35,000  Level FlightAware
05:25AM 60.5610 8.5190 99° East 506 582 35,000  Level FlightAware
05:26AM 60.5480 8.6700 100° East 503 579 35,000  Level FlightAware
05:26AM 60.5340 8.8420 99° East 501 577 35,000  Level FlightAware
05:27AM 60.5110 9.1210 99° East 499 574 35,000  Level FlightAware
05:28AM 60.4980 9.2810 99° East 498 573 35,000  Level FlightAware
05:28AM 60.4860 9.4210 100° East 498 573 35,000  Level FlightAware
05:29AM 60.4710 9.5860 100° East 501 577 35,000  Level FlightAware
05:29AM 60.4580 9.7410 100° East 503 579 35,000  Level FlightAware
05:30AM 60.4410 9.9300 100° East 502 578 35,000  Level FlightAware
05:31AM 60.4240 10.1110 101° East 501 577 35,000  Level FlightAware
05:31AM 60.4100 10.2610 101° East 501 577 35,000  Level FlightAware
05:32AM 60.3850 10.5250 101° East 505 581 35,000  Level FlightAware
05:33AM 60.3690 10.6930 101° East 505 581 35,000  Level FlightAware
05:33AM 60.3530 10.8600 101° East 503 579 35,000  Level FlightAware
05:35AM 60.3240 11.1540 101° East 496 571 35,000  Level FlightAware
05:35AM 60.3090 11.2990 102° East 497 572 35,000  Level FlightAware
05:36AM 60.2940 11.4470 101° East 497 572 35,000  Level FlightAware
05:36AM 60.2750 11.6300 102° East 495 570 35,000  Level FlightAware
05:38AM 60.2400 11.9610 102° East 500 575 35,000  Level FlightAware
05:38AM 60.2180 12.1680 102° East 499 574 35,000  Level FlightAware
05:39AM 60.2000 12.3270 103° East 500 575 35,000  Level FlightAware
05:40AM 60.1810 12.4990 102° East 502 578 35,000  Level FlightAware
05:40AM 60.1630 12.6600 103° East 504 580 35,000  Level FlightAware
05:41AM 60.1420 12.8380 103° East 504 580 35,000  Level FlightAware
05:41AM 60.1270 12.9650 103° East 499 574 35,000  Level FlightAware
05:42AM 60.1070 13.1390 103° East 496 571 35,000  Level FlightAware
05:42AM 60.0870 13.3030 104° East 497 572 35,000  Level FlightAware
05:44AM 60.0530 13.5850 103° East 499 574 35,000  Level FlightAware
05:44AM 60.0340 13.7380 104° East 498 573 35,000  Level FlightAware
05:45AM 59.9950 14.0470 104° East 499 574 35,000  Level FlightAware
05:46AM 59.9780 14.1820 104° East 499 574 35,000  Level FlightAware
05:46AM 59.9530 14.3670 105° East 498 573 35,000  Level FlightAware
05:47AM 59.9350 14.5080 104° East 498 573 35,000  Level FlightAware
05:48AM 59.9140 14.6720 104° East 499 574 35,000  Level FlightAware
05:49AM 59.8780 14.9400 105° East 498 573 35,000  Level FlightAware
05:49AM 59.8480 15.1570 105° East 497 572 35,000  Level FlightAware
05:51AM 59.8030 15.4840 105° East 499 574 35,000  Level FlightAware
05:51AM 59.7850 15.6140 105° East 499 574 35,000  Level FlightAware
05:52AM 59.7580 15.8040 106° East 502 578 35,000  Level FlightAware
05:53AM 59.7173 16.0860 106° East 503 579 35,000  Level FlightAware ADS-B (YKMB / KRB)
05:54AM 59.6917 16.2621 106° East 492 566 35,000  Level FlightAware ADS-B (YKMB / KRB)
05:55AM 59.6536 16.5189 106° East 497 572 35,000  Level FlightAware ADS-B (YKMB / KRB)
05:55AM 59.6274 16.6946 106° East 499 574 35,000  Level FlightAware ADS-B (YKMB / KRB)
05:56AM 59.6071 16.8289 107° East 504 580 35,000  Level FlightAware ADS-B (YKMB / KRB)
05:56AM 59.5876 16.9569 107° East 503 579 35,000  Level FlightAware ADS-B (YKMB / KRB)
05:57AM 59.5604 17.1336 107° East 504 580 35,000  Level FlightAware ADS-B (YKMB / KRB)
05:58AM 59.5334 17.3075 107° East 502 578 35,000  Level FlightAware ADS-B (YKMB / KRB)
05:58AM 59.5125 17.4409 107° East 502 578 35,000  Level FlightAware ADS-B (YKMB / KRB)
05:59AM 59.4925 17.5681 107° East 504 580 35,000  Level FlightAware ADS-B (YKMB / KRB)
05:59AM 59.4717 17.6979 107° East 502 578 35,000  Level FlightAware ADS-B (YKMB / KRB)
06:00AM 59.4504 17.8317 107° East 500 575 35,000  Level FlightAware ADS-B (YKMB / KRB)
06:00AM 59.4295 17.9604 108° East 498 573 35,000  Level FlightAware ADS-B (YKMB / KRB)
06:01AM 59.4083 18.0909 108° East 500 575 35,000  Level FlightAware ADS-B (YKMB / KRB)
06:01AM 59.3803 18.2620 108° East 499 574 35,000  Level FlightAware ADS-B (YKMB / KRB)
06:02AM 59.3589 18.3911 108° East 498 573 35,000  Level FlightAware ADS-B (YKMB / KRB)
06:02AM 59.3305 18.5617 108° East 498 573 35,000  Level FlightAware ADS-B (YKMB / KRB)
06:03AM 59.3083 18.6934 108° East 497 572 35,000  Level FlightAware ADS-B (YKMB / KRB)
06:03AM 59.2869 18.8199 108° East 497 572 35,000  Level FlightAware ADS-B (YKMB / KRB)
06:04AM 59.2645 18.9514 108° East 500 575 35,000  Level FlightAware ADS-B (YKMB / KRB)
06:04AM 59.2424 19.0798 109° East 497 572 35,000  Level FlightAware ADS-B (YKMB / KRB)
06:05AM 59.2131 19.2488 109° East 496 571 35,000  Level FlightAware ADS-B (YKMB / KRB)
06:06AM 59.1909 19.3763 109° East 497 572 35,000  Level FlightAware ADS-B (YKMB / KRB)
06:06AM 59.1689 19.5011 109° East 494 568 35,000  Level FlightAware ADS-B (YKMB / KRB)
06:07AM 59.1464 19.6284 109° East 493 567 35,000  Level FlightAware ADS-B (YKMB / KRB)
06:07AM 59.1169 19.7936 109° East 491 565 35,000  Level FlightAware ADS-B (YKMB / KRB)
06:08AM 59.0943 19.9196 109° East 489 563 35,000  Level FlightAware ADS-B (YKMB / KRB)
06:08AM 59.0650 20.0811 109° East 489 563 35,000  Level FlightAware ADS-B (YKMB / KRB)
06:09AM 59.0419 20.2076 110° East 494 568 35,000  Level FlightAware ADS-B (YKMB / KRB)
06:10AM 59.0151 20.3533 110° East 499 574 35,000  Level FlightAware ADS-B (YKMB / KRB)
06:10AM 58.9875 20.5021 110° East 501 577 35,000  Level FlightAware ADS-B (YKMB / KRB)
06:11AM 58.9569 20.6664 110° East 502 578 35,000  Level FlightAware ADS-B (YKMB / KRB)
06:11AM 58.9323 20.7973 110° East 495 570 35,000  Level FlightAware ADS-B (YKMB / KRB)
06:12AM 58.9067 20.9364 110° East 491 565 35,000  Level FlightAware ADS-B (YKMB / KRB)
06:13AM 58.8710 21.2120 95° East 501 577 35,000  Level FlightAware
06:14AM 58.8863 21.3512 95° East  Level Estimated
06:14AM 58.8500 21.3820 103° East 504 580 35,000  Level FlightAware
06:14AM 58.8310 21.5350 103° East 508 585 35,000  Level FlightAware
06:15AM 58.8080 21.7090 104° East 510 587 35,000  Level FlightAware
06:16AM 58.7860 21.8820 104° East 509 586 35,000  Level FlightAware
06:16AM 58.7700 22.0030 104° East 507 583 35,000  Level FlightAware
06:17AM 58.7490 22.1590 104° East 503 579 35,000  Level FlightAware
06:17AM 58.7330 22.2800 104° East 501 577 35,000  Level FlightAware
06:18AM 58.6950 22.5640 104° East 504 580 35,000  Level FlightAware
06:19AM 58.6750 22.7090 105° East 502 578 35,000  Level FlightAware
06:19AM 58.6530 22.8650 105° East 496 571 35,000  Level FlightAware
06:20AM 58.6300 23.0290 105° East 495 570 35,000  Level FlightAware
06:21AM 58.6030 23.2210 105° East 497 572 35,000  Level FlightAware
06:21AM 58.5820 23.3680 105° East 498 573 35,000  Level FlightAware
06:22AM 58.5560 23.5440 106° East 499 574 35,000  Level FlightAware
06:23AM 58.5320 23.7070 106° East 496 571 35,000  Level FlightAware
06:23AM 58.5090 23.8630 106° East 497 572 35,000  Level FlightAware
06:24AM 58.4710 24.1190 106° East 497 572 35,000  Level FlightAware
06:25AM 58.4450 24.2900 106° East 497 572 35,000  Level FlightAware
06:25AM 58.4240 24.4280 106° East 493 567 35,000  Level FlightAware
06:26AM 58.3980 24.5910 107° East 489 563 35,000  Level FlightAware
06:27AM 58.3720 24.7290 110° East 493 567 35,000  Level FlightAware
06:27AM 58.3510 24.8480 109° East 497 572 35,000  Level FlightAware
06:28AM 58.3090 25.0800 109° East 502 578 35,000  Level FlightAware
06:29AM 58.2830 25.2220 109° East 503 579 35,000  Level FlightAware
06:29AM 58.2480 25.4140 109° East 502 578 35,000  Level FlightAware
06:30AM 58.2130 25.6020 109° East 501 577 35,000  Level FlightAware
06:31AM 58.1920 25.7150 109° East 502 578 35,000  Level FlightAware
06:31AM 58.1600 25.8880 109° East 501 577 35,000  Level FlightAware
06:32AM 58.1290 26.0470 110° East 500 575 35,000  Level FlightAware
06:32AM 58.1040 26.1800 110° East 500 575 35,000  Level FlightAware
06:33AM 58.0750 26.3320 110° East 501 577 35,000  Level FlightAware
06:34AM 58.0400 26.5080 111° Southeast 503 579 35,000  Level FlightAware
06:34AM 58.0110 26.6610 110° East 505 581 35,000  Level FlightAware
06:35AM 57.9780 26.8240 111° Southeast 506 582 35,000  Level FlightAware
06:36AM 57.9450 26.9920 110° East 505 581 35,000  Level FlightAware
06:36AM 57.9190 27.1230 110° East 504 580 35,000  Level FlightAware
06:37AM 57.8630 27.3980 111° Southeast 496 571 35,000  Level FlightAware
06:38AM 57.8200 27.5720 115° Southeast 480 552 35,000  Level FlightAware
06:39AM 57.7790 27.7010 121° Southeast 480 552 35,000  Level FlightAware
06:40AM 57.7030 27.9380 121° Southeast 477 549 35,000  Level FlightAware
06:41AM 57.6600 28.0670 122° Southeast 477 549 35,000  Level FlightAware
06:41AM 57.6120 28.2100 122° Southeast 476 548 35,000  Level FlightAware
06:42AM 57.5640 28.3490 123° Southeast 476 548 35,000  Level FlightAware
06:43AM 57.4920 28.5610 122° Southeast 481 554 35,000  Level FlightAware
06:44AM 57.4440 28.7010 122° Southeast 482 555 35,000  Level FlightAware
06:44AM 57.4050 28.8120 123° Southeast 484 557 35,000  Level FlightAware
06:45AM 57.3540 28.9600 123° Southeast 484 557 35,000  Level FlightAware
06:45AM 57.3110 29.0840 123° Southeast 480 552 35,000  Level FlightAware
06:46AM 57.2620 29.2220 123° Southeast 479 551 35,000  Level FlightAware
06:47AM 57.2160 29.3530 123° Southeast 477 549 35,000  Level FlightAware
06:47AM 57.1710 29.4790 123° Southeast 480 552 35,000  Level FlightAware
06:48AM 57.1310 29.5920 123° Southeast 482 555 35,000  Level FlightAware
06:48AM 57.0910 29.7040 123° Southeast 482 555 35,000  Level FlightAware
06:49AM 57.0540 29.8050 124° Southeast 482 555 35,000  Level FlightAware
06:50AM 57.0130 29.9200 123° Southeast 479 551 35,000  Level FlightAware
06:50AM 56.9780 30.0150 124° Southeast 476 548 35,000  Level FlightAware
06:51AM 56.9380 30.1260 123° Southeast 478 550 35,000  Level FlightAware
06:51AM 56.9070 30.2090 124° Southeast 479 551 35,000  Level FlightAware
06:52AM 56.8670 30.3180 124° Southeast 481 554 35,000  Level FlightAware
06:52AM 56.8170 30.4540 124° Southeast 481 554 35,000  Level FlightAware
06:53AM 56.9500 30.0930 304° West 35,000  Level FlightAware
06:55AM 56.5830 31.0120 103° East 468 539 35,000  Level FlightAware
06:56AM 56.8678 30.7379 103° East  Level Estimated
06:56AM 56.5480 31.0900 129° Southeast 474 545 35,000  Level FlightAware
06:56AM 56.5050 31.1930 127° Southeast 474 545 35,000  Level FlightAware
06:57AM 56.4540 31.3170 127° Southeast 474 545 35,000  Level FlightAware
06:58AM 56.4060 31.4890 117° Southeast 483 556 35,000  Level FlightAware
06:59AM 56.3150 31.7410 123° Southeast 483 556 35,000  Level FlightAware
06:59AM 56.2690 31.8680 123° Southeast 484 557 35,000  Level FlightAware
07:00AM 56.2960 31.7930 303° West 484 557 35,000  Level FlightAware
07:01AM 56.1810 32.1100 123° Southeast 489 563 35,000  Level FlightAware
07:01AM 56.1360 32.2280 124° Southeast 489 563 35,000  Level FlightAware
07:02AM 56.0840 32.3590 125° Southeast 489 563 35,000  Level FlightAware
07:03AM 56.0330 32.4900 125° Southeast 490 564 35,000  Level FlightAware
07:03AM 55.9870 32.6050 126° Southeast 488 562 35,000  Level FlightAware
07:04AM 55.9280 32.7550 125° Southeast 488 562 35,000  Level FlightAware
07:05AM 55.8770 32.8830 125° Southeast 489 563 35,000  Level FlightAware
07:05AM 55.8200 33.0060 129° Southeast 478 550 35,000  Level FlightAware
07:06AM 55.7730 33.1070 130° Southeast 479 551 35,000  Level FlightAware
07:06AM 55.7270 33.2030 130° Southeast 478 550 35,000  Level FlightAware
07:07AM 55.6770 33.3070 130° Southeast 480 552 35,000  Level FlightAware
07:08AM 55.5900 33.4860 131° Southeast 481 554 35,000  Level FlightAware
07:08AM 55.5400 33.5890 131° Southeast 482 555 35,000  Level FlightAware
07:09AM 55.4680 33.7370 131° Southeast 480 552 35,000  Level FlightAware
07:10AM 55.4170 33.8400 131° Southeast 479 551 35,000  Level FlightAware
07:11AM 55.3600 33.9600 130° Southeast 478 550 35,000  Level FlightAware
07:11AM 55.3170 34.0510 130° Southeast 479 551 35,000  Level FlightAware
07:12AM 55.2520 34.1850 130° Southeast 484 557 35,000  Level FlightAware
07:12AM 55.1940 34.3050 130° Southeast 481 554 35,000  Level FlightAware
07:13AM 55.1540 34.4010 126° Southeast 497 572 35,000  Level FlightAware
07:14AM 55.1190 34.5770 109° East 512 589 35,000  Level FlightAware
07:14AM 55.0920 34.7310 107° East 513 590 35,000  Level FlightAware
07:15AM 55.0660 34.8750 107° East 514 592 35,000  Level FlightAware
07:16AM 55.0380 35.0330 107° East 514 592 35,000  Level FlightAware
07:16AM 55.0030 35.2220 108° East 513 590 35,000  Level FlightAware
07:18AM 54.9540 35.4880 108° East 510 587 35,000  Level FlightAware
07:19AM 54.9050 35.7530 108° East 508 585 35,000  Level FlightAware
07:19AM 54.8760 35.9040 108° East 507 583 35,000  Level FlightAware
07:20AM 54.8620 35.9760 109° East 507 583 35,000  Level FlightAware
07:21AM 54.8220 36.1880 108° East 510 587 35,000  Level FlightAware
07:21AM 54.8010 36.2990 108° East 511 588 35,000  Level FlightAware
07:22AM 54.7780 36.4140 109° East 508 585 35,000  Level FlightAware
07:22AM 54.7480 36.5670 109° East 508 585 35,000  Level FlightAware
07:23AM 54.7020 36.8120 108° East 508 585 35,000  Level FlightAware
07:24AM 54.6730 36.9740 107° East 504 580 35,000  Level FlightAware
07:25AM 54.6460 37.1240 107° East 505 581 35,000  Level FlightAware
07:25AM 54.6200 37.2620 108° East 507 583 35,000  Level FlightAware
07:26AM 54.5830 37.4080 114° Southeast 500 575 35,000  Level FlightAware
07:27AM 54.5460 37.5350 117° Southeast 500 575 35,000  Level FlightAware
07:27AM 54.5140 37.6480 116° Southeast 500 575 35,000  Level FlightAware
07:28AM 54.4640 37.8240 116° Southeast 501 577 35,000  Level FlightAware
07:28AM 54.4310 37.9390 116° Southeast 501 577 35,000  Level FlightAware
07:29AM 54.3900 38.0850 116° Southeast 501 577 35,000  Level FlightAware
07:30AM 54.3540 38.2140 116° Southeast 504 580 35,000  Level FlightAware
07:30AM 54.3230 38.3770 108° East 508 585 35,000  Level FlightAware
07:31AM 54.2970 38.5450 105° East 509 586 35,000  Level FlightAware
07:32AM 54.2780 38.6640 105° East 508 585 35,000  Level FlightAware
07:32AM 54.2520 38.8310 105° East 508 585 35,000  Level FlightAware
07:33AM 54.2280 38.9840 105° East 509 586 35,000  Level FlightAware
07:34AM 54.2070 39.1350 103° East 511 588 35,000  Level FlightAware
07:34AM 54.1850 39.2890 104° East 511 588 35,000  Level FlightAware
07:35AM 54.1610 39.4540 104° East 510 587 35,000  Level FlightAware
07:36AM 54.1430 39.5750 104° East 510 587 35,000  Level FlightAware
07:36AM 54.1240 39.7020 104° East 510 587 35,000  Level FlightAware
07:37AM 54.1050 39.8270 104° East 509 586 35,000  Level FlightAware
07:37AM 54.0860 39.9540 104° East 510 587 35,000  Level FlightAware
07:38AM 54.0660 40.0910 104° East 511 588 35,000  Level FlightAware
07:38AM 54.0400 40.2570 105° East 510 587 35,000  Level FlightAware
07:39AM 54.0160 40.4100 105° East 510 587 35,000  Level FlightAware
07:40AM 53.9720 40.6930 105° East 510 587 35,000  Level FlightAware
07:41AM 53.9550 40.8010 105° East 511 588 35,000  Level FlightAware
07:41AM 53.9350 40.9280 105° East 511 588 35,000  Level FlightAware
07:42AM 53.9160 41.0530 104° East 510 587 35,000  Level FlightAware
07:42AM 53.8960 41.1790 105° East 510 587 35,000  Level FlightAware
07:43AM 53.8760 41.3030 105° East 510 587 35,000  Level FlightAware
07:44AM 53.8530 41.4460 105° East 510 587 35,000  Level FlightAware
07:44AM 53.8340 41.5630 105° East 511 588 35,000  Level FlightAware
07:45AM 53.8060 41.7360 105° East 512 589 35,000  Level FlightAware
07:45AM 53.7850 41.8620 106° East 512 589 35,000  Level FlightAware
07:46AM 53.7550 42.0460 105° East 512 589 35,000  Level FlightAware
07:47AM 53.7300 42.1970 106° East 512 589 35,000  Level FlightAware
07:47AM 53.7070 42.3300 106° East 511 588 35,000  Level FlightAware
07:48AM 53.6850 42.4620 106° East 509 586 35,000  Level FlightAware
07:49AM 53.6580 42.6290 105° East 511 588 35,000  Level FlightAware
07:49AM 53.6470 42.7600 98° East 512 589 35,000  Level FlightAware
07:50AM 53.6430 42.9060 93° East 512 589 35,000  Level FlightAware
07:51AM 53.6370 43.1030 93° East 512 589 35,000  Level FlightAware
07:51AM 53.6310 43.2690 93° East 513 590 35,000  Level FlightAware
07:52AM 53.6260 43.4060 93° East 513 590 35,000  Level FlightAware
07:53AM 53.6210 43.5520 93° East 513 590 35,000  Level FlightAware
07:53AM 53.6170 43.6800 93° East 512 589 35,000  Level FlightAware
07:54AM 53.6110 43.8340 94° East 513 590 35,000  Level FlightAware
07:54AM 53.6060 43.9640 94° East 515 593 35,000  Level FlightAware
07:55AM 53.6010 44.0960 94° East 516 594 35,000 120 Level FlightAware
07:56AM 53.5950 44.2690 93° East 515 593 35,200 660 Climbing FlightAware
07:56AM 53.5920 44.3980 92° East 512 589 35,900 1,200 Climbing FlightAware
07:57AM 53.5880 44.5420 93° East 511 588 36,600 840 Climbing FlightAware
07:57AM 53.5830 44.7000 93° East 515 593 37,000 300 Climbing FlightAware
07:58AM 53.5780 44.8450 93° East 514 592 37,000  Level FlightAware
07:59AM 53.5730 45.0170 93° East 515 593 37,000  Level FlightAware
07:59AM 53.5570 45.1890 99° East 515 593 37,000  Level FlightAware
08:00AM 53.5390 45.2960 106° East 515 593 37,000  Level FlightAware
08:01AM 53.5070 45.4370 111° Southeast 516 594 37,000  Level FlightAware
08:01AM 53.4660 45.6060 112° Southeast 515 593 37,000  Level FlightAware
08:02AM 53.4290 45.7560 112° Southeast 515 593 37,000  Level FlightAware
08:03AM 53.3960 45.8870 113° Southeast 514 592 37,000  Level FlightAware
08:03AM 53.3620 46.0220 113° Southeast 513 590 37,000  Level FlightAware
08:04AM 53.3320 46.1370 114° Southeast 513 590 37,000  Level FlightAware
08:04AM 53.2990 46.2670 113° Southeast 514 592 37,000  Level FlightAware
08:05AM 53.2660 46.3960 113° Southeast 512 589 37,000  Level FlightAware
08:05AM 53.2330 46.5210 114° Southeast 514 592 37,000  Level FlightAware
08:06AM 53.2000 46.6480 113° Southeast 515 593 37,000  Level FlightAware
08:07AM 53.1530 46.8280 113° Southeast 514 592 37,000  Level FlightAware
08:08AM 53.0760 47.1190 114° Southeast 514 592 37,000  Level FlightAware
08:09AM 53.0430 47.2440 114° Southeast 515 593 37,000  Level FlightAware
08:10AM 52.9990 47.4060 114° Southeast 515 593 37,000  Level FlightAware
08:10AM 52.9600 47.5500 114° Southeast 513 590 37,000  Level FlightAware
08:11AM 52.9190 47.7020 114° Southeast 514 592 37,000  Level FlightAware
08:12AM 52.8770 47.8550 114° Southeast 518 596 37,000  Level FlightAware
08:12AM 52.8370 47.9990 115° Southeast 517 595 37,000  Level FlightAware
08:13AM 52.8070 48.1060 115° Southeast 517 595 37,000  Level FlightAware
08:13AM 52.7770 48.2150 114° Southeast 516 594 37,000  Level FlightAware
08:14AM 52.7370 48.3560 115° Southeast 516 594 37,000  Level FlightAware
08:15AM 52.6940 48.4750 121° Southeast 514 592 37,000  Level FlightAware
08:15AM 52.6430 48.6040 123° Southeast 512 589 37,000  Level FlightAware
08:16AM 52.5990 48.7190 122° Southeast 513 590 37,000  Level FlightAware
08:16AM 52.5470 48.8500 123° Southeast 515 593 37,000  Level FlightAware
08:17AM 52.4890 48.9980 123° Southeast 515 593 37,000  Level FlightAware
08:18AM 52.4380 49.1280 123° Southeast 516 594 37,000  Level FlightAware
08:18AM 52.3920 49.2430 123° Southeast 514 592 37,000  Level FlightAware
08:19AM 52.3210 49.4220 123° Southeast 515 593 37,000  Level FlightAware
08:20AM 52.2750 49.5360 123° Southeast 515 593 37,000  Level FlightAware
08:21AM 52.2030 49.7130 124° Southeast 516 594 37,000  Level FlightAware
08:22AM 52.1370 49.8750 124° Southeast 516 594 37,000  Level FlightAware
08:22AM 52.0840 50.0040 124° Southeast 515 593 37,000  Level FlightAware
08:23AM 52.0320 50.1320 123° Southeast 516 594 37,000  Level FlightAware
08:24AM 51.9390 50.3570 124° Southeast 515 593 37,000  Level FlightAware
08:25AM 51.9060 50.4340 125° Southeast 515 593 37,000  Level FlightAware
08:25AM 51.8530 50.5620 124° Southeast 515 593 37,000  Level FlightAware
08:26AM 51.7990 50.6890 124° Southeast 514 592 37,000  Level FlightAware
08:27AM 51.7570 50.7880 124° Southeast 513 590 37,000  Level FlightAware
08:27AM 51.7120 50.8820 128° Southeast 514 592 37,000  Level FlightAware
08:28AM 51.6000 51.0490 137° Southeast 514 592 37,000  Level FlightAware
08:29AM 51.5390 51.1180 145° Southeast 514 592 37,000  Level FlightAware
08:29AM 51.4550 51.2420 137° Southeast 517 595 37,000  Level FlightAware
08:30AM 51.3770 51.3790 132° Southeast 517 595 37,000  Level FlightAware
08:31AM 51.3290 51.4640 132° Southeast 518 596 37,000  Level FlightAware
08:31AM 51.2860 51.5400 132° Southeast 518 596 37,000  Level FlightAware
08:32AM 51.2310 51.6360 132° Southeast 518 596 37,000  Level FlightAware
08:32AM 51.1920 51.7050 132° Southeast 518 596 37,000  Level FlightAware
08:33AM 51.1090 51.8500 132° Southeast 519 597 37,000  Level FlightAware
08:34AM 51.0630 51.9300 132° Southeast 519 597 37,000  Level FlightAware
08:34AM 51.0110 52.0200 133° Southeast 520 598 37,000  Level FlightAware
08:35AM 50.9380 52.1450 133° Southeast 520 598 37,000  Level FlightAware
08:35AM 50.8710 52.2600 133° Southeast 518 596 37,000  Level FlightAware
08:36AM 50.8180 52.3510 133° Southeast 518 596 37,000  Level FlightAware
08:37AM 50.7660 52.4400 133° Southeast 519 597 37,000  Level FlightAware
08:37AM 50.7150 52.5270 133° Southeast 519 597 37,000  Level FlightAware
08:38AM 50.6480 52.6390 133° Southeast 519 597 37,000  Level FlightAware
08:39AM 50.5810 52.7520 133° Southeast 520 598 37,000  Level FlightAware
08:39AM 50.5270 52.8430 133° Southeast 519 597 37,000  Level FlightAware
08:40AM 50.4620 52.9510 133° Southeast 520 598 37,000  Level FlightAware
08:40AM 50.4240 53.0150 133° Southeast 520 598 37,000  Level FlightAware
08:41AM 50.3690 53.1060 133° Southeast 520 598 37,000  Level FlightAware
08:41AM 50.3190 53.1910 133° Southeast 520 598 37,000  Level FlightAware
08:42AM 50.2690 53.2750 133° Southeast 520 598 37,000  Level FlightAware
08:43AM 50.2180 53.3590 133° Southeast 520 598 37,000  Level FlightAware
08:43AM 50.1680 53.4430 133° Southeast 520 598 37,000  Level FlightAware
08:44AM 50.1180 53.5270 133° Southeast 520 598 37,000  Level FlightAware
08:45AM 50.0510 53.6390 133° Southeast 520 598 37,000  Level FlightAware
08:45AM 50.0010 53.7230 133° Southeast 520 598 37,000  Level FlightAware
08:46AM 49.8700 53.9200 136° Southeast 37,000  Level FlightAware
08:49AM 49.6762 54.4005 122° Southeast  Level Estimated
08:50AM 49.6073 54.5692 122° Southeast  Level Estimated
08:51AM 49.5382 54.7374 122° Southeast  Level Estimated
08:51AM 49.4090 54.7310 122° Southeast 517 595 37,000  Level FlightAware
08:51AM 49.3410 54.8510 131° Southeast 517 595 37,000  Level FlightAware
08:52AM 49.3090 54.9080 131° Southeast 517 595 37,000  Level FlightAware
08:53AM 49.2450 55.0210 131° Southeast 517 595 37,000  Level FlightAware
08:53AM 49.1950 55.1080 131° Southeast 517 595 37,000  Level FlightAware
08:54AM 49.1470 55.1920 131° Southeast 517 595 37,000  Level FlightAware
08:54AM 49.1020 55.2720 131° Southeast 517 595 37,000  Level FlightAware
08:55AM 49.0380 55.3840 131° Southeast 517 595 37,000  Level FlightAware
08:56AM 48.8760 55.6370 134° Southeast 516 594 37,000  Level FlightAware
08:57AM 48.8270 55.7200 132° Southeast 516 594 37,000  Level FlightAware
08:58AM 48.7770 55.8040 132° Southeast 516 594 37,000  Level FlightAware
08:58AM 48.7270 55.8890 132° Southeast 516 594 37,000  Level FlightAware
08:59AM 48.6770 55.9730 132° Southeast 516 594 37,000  Level FlightAware
08:59AM 48.6280 56.0560 132° Southeast 516 594 37,000  Level FlightAware
09:00AM 48.5780 56.1400 132° Southeast 516 594 37,000  Level FlightAware
09:01AM 48.5310 56.2170 133° Southeast 516 594 37,000  Level FlightAware
09:01AM 48.4820 56.2990 132° Southeast 516 594 37,000  Level FlightAware
09:02AM 48.4340 56.3810 131° Southeast 516 594 37,000  Level FlightAware
09:02AM 48.3850 56.4630 132° Southeast 516 594 37,000  Level FlightAware
09:03AM 48.3360 56.5450 132° Southeast 516 594 37,000  Level FlightAware
09:04AM 48.2870 56.6260 132° Southeast 516 594 37,000  Level FlightAware
09:04AM 48.2380 56.7080 132° Southeast 516 594 37,000  Level FlightAware
09:05AM 48.1890 56.7890 132° Southeast 516 594 37,000  Level FlightAware
09:06AM 48.1230 56.9000 132° Southeast 516 594 37,000  Level FlightAware
09:09AM 47.9123 57.3667 124° Southeast  Level Estimated
09:10AM 47.8396 57.5258 124° Southeast  Level Estimated
09:11AM 47.7667 57.6845 124° Southeast  Level Estimated
09:12AM 47.6936 57.8427 124° Southeast  Level Estimated
09:13AM 47.6202 58.0005 125° Southeast  Level Estimated
09:14AM 47.5467 58.1579 125° Southeast  Level Estimated
09:15AM 47.4729 58.3148 125° Southeast  Level Estimated
09:16AM 47.3989 58.4712 125° Southeast  Level Estimated
09:17AM 47.3247 58.6273 125° Southeast  Level Estimated
09:18AM 47.2504 58.7829 125° Southeast  Level Estimated
09:19AM 47.1757 58.9380 125° Southeast  Level Estimated
09:20AM 47.1009 59.0928 125° Southeast  Level Estimated
09:21AM 47.0259 59.2470 125° Southeast  Level Estimated
09:22AM 46.9506 59.4009 126° Southeast  Level Estimated
09:23AM 46.8752 59.5543 126° Southeast  Level Estimated
09:24AM 46.7996 59.7073 126° Southeast  Level Estimated
09:25AM 46.7237 59.8599 126° Southeast  Level Estimated
09:26AM 46.6477 60.0120 126° Southeast  Level Estimated
09:27AM 46.5714 60.1637 126° Southeast  Level Estimated
09:28AM 46.4950 60.3149 126° Southeast  Level Estimated
09:29AM 46.4183 60.4658 126° Southeast  Level Estimated
09:30AM 46.3415 60.6162 126° Southeast  Level Estimated
09:31AM 46.2644 60.7662 127° Southeast  Level Estimated
09:32AM 46.1872 60.9158 127° Southeast  Level Estimated
09:33AM 46.1097 61.0650 127° Southeast  Level Estimated
09:34AM 46.0321 61.2137 127° Southeast  Level Estimated
09:35AM 45.9543 61.3620 127° Southeast  Level Estimated
09:36AM 45.8763 61.5099 127° Southeast  Level Estimated
09:37AM 45.7981 61.6574 127° Southeast  Level Estimated
09:38AM 45.7197 61.8045 127° Southeast  Level Estimated
09:39AM 45.6411 61.9512 127° Southeast  Level Estimated
09:40AM 45.5623 62.0974 128° Southeast  Level Estimated
09:41AM 45.4834 62.2433 128° Southeast  Level Estimated
09:42AM 45.4042 62.3887 128° Southeast  Level Estimated
09:43AM 45.3249 62.5337 128° Southeast  Level Estimated
09:44AM 45.2454 62.6783 128° Southeast  Level Estimated
09:45AM 45.1657 62.8226 128° Southeast  Level Estimated
09:46AM 45.0858 62.9664 128° Southeast  Level Estimated
09:47AM 45.0058 63.1098 128° Southeast  Level Estimated
09:48AM 44.9256 63.2528 128° Southeast  Level Estimated
09:49AM 44.8452 63.3954 128° Southeast  Level Estimated
09:50AM 44.7646 63.5376 129° Southeast  Level Estimated
09:51AM 44.6838 63.6794 129° Southeast  Level Estimated
09:52AM 44.6029 63.8208 129° Southeast  Level Estimated
09:53AM 44.5218 63.9619 129° Southeast  Level Estimated
09:54AM 44.4405 64.1025 129° Southeast  Level Estimated
09:55AM 44.3591 64.2427 129° Southeast  Level Estimated
09:56AM 44.2774 64.3826 129° Southeast  Level Estimated
09:57AM 44.1956 64.5220 129° Southeast  Level Estimated
09:58AM 44.1137 64.6611 129° Southeast  Level Estimated
09:59AM 44.0315 64.7998 129° Southeast  Level Estimated
10:00AM 43.9492 64.9381 130° Southeast  Level Estimated
10:01AM 43.8668 65.0761 130° Southeast  Level Estimated
10:02AM 43.7841 65.2136 130° Southeast  Level Estimated
10:03AM 43.7013 65.3508 130° Southeast  Level Estimated
10:04AM 43.6184 65.4875 130° Southeast  Level Estimated
10:05AM 43.5353 65.6239 130° Southeast  Level Estimated
10:06AM 43.4520 65.7600 130° Southeast  Level Estimated
10:06AM 41.2500 64.8900 130° Southeast 518 596 39,000  Level FlightAware
10:07AM 43.3685 65.8956 130° Southeast  Level Estimated
10:07AM 41.1780 64.9300 157° South 517 595 39,000  Level FlightAware
10:07AM 41.0810 64.9800 159° South 516 594 39,000  Level FlightAware
10:08AM 41.0330 65.0050 159° South 517 595 39,000  Level FlightAware
10:09AM 40.9130 65.0680 158° South 519 597 39,000  Level FlightAware
10:09AM 40.8560 65.0980 158° South 519 597 39,000  Level FlightAware
10:10AM 40.7540 65.1520 158° South 520 598 39,000  Level FlightAware
10:11AM 40.5560 65.2570 158° South 528 608 39,000  Level FlightAware
10:12AM 40.4830 65.2950 158° South 527 606 39,000  Level FlightAware
10:12AM 40.4030 65.3370 158° South 527 606 39,000  Level FlightAware
10:13AM 40.3260 65.3770 158° South 527 606 39,000  Level FlightAware
10:14AM 40.2050 65.4390 159° South 527 606 39,000  Level FlightAware
10:15AM 40.0650 65.5110 159° South 527 606 39,000  Level FlightAware
10:15AM 39.9930 65.5480 159° South 528 608 39,000  Level FlightAware
10:16AM 39.9070 65.5930 158° South 527 606 39,000  Level FlightAware
10:17AM 39.8160 65.6400 158° South 524 603 39,000  Level FlightAware
10:17AM 39.7460 65.6760 158° South 524 603 39,000  Level FlightAware
10:18AM 39.6640 65.7170 159° South 524 603 39,000  Level FlightAware
10:19AM 39.5690 65.7650 159° South 523 602 39,000  Level FlightAware
10:19AM 39.4600 65.8190 159° South 520 598 39,000  Level FlightAware
10:20AM 39.3650 65.8670 159° South 517 595 39,000  Level FlightAware
10:21AM 39.2830 65.9080 159° South 516 594 39,000  Level FlightAware
10:21AM 39.2160 65.9420 159° South 517 595 39,000  Level FlightAware
10:22AM 39.1070 65.9980 158° South 517 595 39,000  Level FlightAware
10:23AM 39.0600 66.0220 158° South 517 595 39,000  Level FlightAware
10:23AM 38.9920 66.0570 158° South 517 595 39,000  Level FlightAware
10:24AM 38.8990 66.1050 158° South 517 595 39,000  Level FlightAware
10:25AM 38.8320 66.1410 157° South 517 595 39,000  Level FlightAware
10:25AM 38.7410 66.1880 158° South 517 595 39,000  Level FlightAware
10:26AM 38.6730 66.2230 158° South 517 595 39,000  Level FlightAware
10:27AM 38.6030 66.2590 158° South 517 595 39,000  Level FlightAware
10:27AM 38.5320 66.2960 158° South 517 595 39,000  Level FlightAware
10:28AM 38.4620 66.3320 158° South 517 595 39,000  Level FlightAware
10:28AM 38.4170 66.3550 158° South 517 595 39,000  Level FlightAware
10:29AM 38.3260 66.4020 158° South 517 595 39,000  Level FlightAware
10:29AM 38.2810 66.4250 158° South 517 595 39,000  Level FlightAware
10:30AM 38.2130 66.4600 158° South 517 595 39,000  Level FlightAware
10:31AM 38.1450 66.4950 158° South 517 595 39,000  Level FlightAware
10:31AM 38.0780 66.5300 158° South 517 595 39,000  Level FlightAware
10:32AM 38.0360 66.5510 159° South 517 595 39,000  Level FlightAware
10:35AM 37.8088 66.9215 128° Southeast  Level Estimated
10:36AM 37.7293 67.0502 128° Southeast  Level Estimated
10:37AM 37.6496 67.1786 128° Southeast  Level Estimated
10:38AM 37.5698 67.3068 128° Southeast  Level Estimated
10:39AM 37.4899 67.4346 128° Southeast  Level Estimated
10:40AM 37.4098 67.5622 128° Southeast  Level Estimated
10:41AM 37.3296 67.6896 128° Southeast  Level Estimated
10:42AM 37.2492 67.8166 128° Southeast  Level Estimated
10:43AM 37.1688 67.9434 129° Southeast  Level Estimated
10:44AM 37.0881 68.0699 129° Southeast  Level Estimated
10:45AM 37.0074 68.1962 129° Southeast  Level Estimated
10:46AM 36.9265 68.3222 129° Southeast  Level Estimated
10:47AM 36.8455 68.4479 129° Southeast  Level Estimated
10:48AM 36.7643 68.5733 129° Southeast  Level Estimated
10:49AM 36.6830 68.6985 129° Southeast  Level Estimated
10:50AM 36.6016 68.8234 129° Southeast  Level Estimated
10:51AM 36.5201 68.9481 129° Southeast  Level Estimated
10:52AM 36.4384 69.0725 129° Southeast  Level Estimated
10:53AM 36.3566 69.1966 129° Southeast  Level Estimated
10:54AM 36.2746 69.3205 129° Southeast  Level Estimated
10:55AM 36.1926 69.4441 129° Southeast  Level Estimated
10:56AM 36.1104 69.5674 129° Southeast  Level Estimated
10:57AM 36.0281 69.6905 130° Southeast  Level Estimated
10:58AM 35.9456 69.8134 130° Southeast  Level Estimated
10:59AM 35.8631 69.9359 130° Southeast  Level Estimated
11:00AM 35.7804 70.0583 130° Southeast  Level Estimated
11:01AM 35.6976 70.1803 130° Southeast  Level Estimated
11:02AM 35.6147 70.3021 130° Southeast  Level Estimated
11:03AM 35.5316 70.4237 130° Southeast  Level Estimated
11:04AM 35.4484 70.5450 130° Southeast  Level Estimated
11:05AM 35.3651 70.6661 130° Southeast  Level Estimated
11:06AM 35.2817 70.7869 130° Southeast  Level Estimated
11:06AM 33.4660 69.8070 130° Southeast 522 601 39,000  Level FlightAware
11:07AM 35.1982 70.9074 130° Southeast  Level Estimated
11:07AM 33.3780 69.8640 152° Southeast 522 601 39,000  Level FlightAware
11:08AM 33.3120 69.9050 153° Southeast 522 601 39,000  Level FlightAware
11:08AM 33.2470 69.9470 152° Southeast 522 601 39,000  Level FlightAware
11:09AM 33.1560 70.0040 152° Southeast 522 601 39,000  Level FlightAware
11:10AM 33.0910 70.0460 152° Southeast 522 601 39,000  Level FlightAware
11:10AM 33.0240 70.0880 152° Southeast 522 601 39,000  Level FlightAware
11:11AM 32.9530 70.1330 152° Southeast 522 601 39,000  Level FlightAware
11:12AM 32.8880 70.1750 152° Southeast 522 601 39,000  Level FlightAware
11:13AM 32.6370 70.3700 147° Southeast 521 600 39,000  Level FlightAware
11:14AM 32.5490 70.4340 148° Southeast 521 600 39,000  Level FlightAware
11:14AM 32.4690 70.4910 149° Southeast 519 597 39,000  Level FlightAware
11:15AM 32.3860 70.5500 149° Southeast 519 597 39,000  Level FlightAware
11:15AM 32.3140 70.6020 149° Southeast 519 597 39,000  Level FlightAware
11:16AM 32.2380 70.6560 149° Southeast 522 601 39,000  Level FlightAware
11:16AM 32.2110 70.6750 149° Southeast 523 602 39,000  Level FlightAware
11:17AM 32.1040 70.7510 149° Southeast 525 604 39,000  Level FlightAware
11:18AM 32.0000 70.8360 145° Southeast 529 609 39,000  Level FlightAware
11:19AM 31.9220 70.9240 136° Southeast 530 610 39,000  Level FlightAware
11:20AM 31.8560 71.0230 128° Southeast 530 610 39,000  Level FlightAware
11:20AM 31.8110 71.1120 121° Southeast 531 611 39,000  Level FlightAware
11:21AM 31.7630 71.2190 118° Southeast 529 609 39,000  Level FlightAware
11:21AM 31.7270 71.2970 118° Southeast 528 608 39,000  Level FlightAware
11:22AM 31.6760 71.4110 118° Southeast 528 608 39,000  Level FlightAware
11:23AM 31.6280 71.5160 118° Southeast 527 606 39,000  Level FlightAware
11:23AM 31.5970 71.5840 118° Southeast 527 606 39,000  Level FlightAware
11:24AM 31.5550 71.6770 118° Southeast 527 606 39,000  Level FlightAware
11:25AM 31.5070 71.7800 119° Southeast 528 608 39,000  Level FlightAware
11:25AM 31.4550 71.8920 119° Southeast 529 609 39,000  Level FlightAware
11:26AM 31.4130 71.9830 118° Southeast 529 609 39,000  Level FlightAware
11:26AM 31.3730 72.0720 118° Southeast 527 606 39,000  Level FlightAware
11:27AM 31.3420 72.1570 113° Southeast 528 608 39,000  Level FlightAware
11:28AM 31.3150 72.2600 107° East 526 605 39,000  Level FlightAware
11:28AM 31.2990 72.3770 99° East 524 603 39,000  Level FlightAware
11:29AM 31.2990 72.5650 90° East 521 600 39,000  Level FlightAware
11:30AM 31.3100 72.6580 82° East 519 597 39,000  Level FlightAware
11:31AM 31.3200 72.7480 83° East 519 597 39,000  Level FlightAware
11:31AM 31.3330 72.8530 82° East 518 596 39,000  Level FlightAware
11:32AM 31.3440 72.9510 82° East 518 596 39,000  Level FlightAware
11:32AM 31.3560 73.0620 83° East 521 600 39,000  Level FlightAware
11:34AM 31.3720 73.2550 84° East 523 602 39,000  Level FlightAware
11:34AM 31.3810 73.3500 84° East 520 598 39,000  Level FlightAware
11:35AM 31.3900 73.4590 84° East 520 598 39,000  Level FlightAware
11:35AM 31.4000 73.5790 84° East 520 598 39,000  Level FlightAware
11:36AM 31.4100 73.6860 84° East 521 600 39,000  Level FlightAware
11:37AM 31.4290 73.8640 83° East 522 601 39,000  Level FlightAware
11:38AM 31.4330 74.0510 89° East 532 612 39,000  Level FlightAware
11:39AM 31.4190 74.1670 98° East 535 616 39,000  Level FlightAware
11:40AM 31.3970 74.2800 103° East 534 615 39,000  Level FlightAware
11:40AM 31.3810 74.3680 102° East 535 616 39,000  Level FlightAware
11:41AM 31.3570 74.5050 102° East 535 616 39,000  Level FlightAware
11:42AM 31.3330 74.6180 104° East 534 615 39,000  Level FlightAware
11:42AM 31.3080 74.7180 106° East 533 613 39,000  Level FlightAware
11:43AM 31.2880 74.8000 106° East 532 612 39,000  Level FlightAware
11:43AM 31.2640 74.8990 106° East 532 612 39,000  Level FlightAware
11:44AM 31.2340 75.0170 107° East 533 613 39,000  Level FlightAware
11:45AM 31.2090 75.1140 107° East 534 615 39,000  Level FlightAware
11:45AM 31.1740 75.2540 106° East 536 617 39,000  Level FlightAware
11:47AM 31.1270 75.4410 106° East 537 618 39,000  Level FlightAware
11:47AM 31.1050 75.5150 109° East 538 619 39,000  Level FlightAware
11:48AM 31.0750 75.6050 111° Southeast 539 620 39,000  Level FlightAware
11:48AM 31.0460 75.6930 111° Southeast 540 621 39,000  Level FlightAware
11:49AM 31.0100 75.7990 112° Southeast 541 623 39,000  Level FlightAware
11:49AM 30.9730 75.9100 111° Southeast 541 623 39,000  Level FlightAware
11:50AM 30.9420 76.0040 111° Southeast 541 623 39,000  Level FlightAware
11:51AM 30.9030 76.1170 112° Southeast 540 621 39,000  Level FlightAware
11:51AM 30.8700 76.2150 111° Southeast 541 623 39,000  Level FlightAware
11:52AM 30.8440 76.2910 112° Southeast 540 621 39,000  Level FlightAware
11:53AM 30.7940 76.4370 112° Southeast 539 620 39,000  Level FlightAware
11:53AM 30.7600 76.5370 112° Southeast 538 619 39,000  Level FlightAware
11:54AM 30.7250 76.6380 112° Southeast 538 619 39,000  Level FlightAware
11:55AM 30.6920 76.7300 113° Southeast 538 619 39,000  Level FlightAware
11:55AM 30.6410 76.8360 119° Southeast 535 616 39,000  Level FlightAware
11:56AM 30.5990 76.9040 126° Southeast 534 615 39,000  Level FlightAware
11:57AM 30.5260 77.0130 128° Southeast 534 615 39,000  Level FlightAware
11:58AM 30.4250 77.1410 132° Southeast 530 610 39,000  Level FlightAware
11:58AM 30.3430 77.2170 141° Southeast 525 604 39,000  Level FlightAware
11:59AM 30.2880 77.2580 147° Southeast 522 601 39,000  Level FlightAware
11:59AM 30.2190 77.3000 152° Southeast 521 600 39,000  Level FlightAware
12:00PM 30.1250 77.3580 152° Southeast 525 604 39,000  Level FlightAware
12:01PM 30.0470 77.4050 152° Southeast 527 606 39,000  Level FlightAware
12:01PM 29.9680 77.4600 149° Southeast 530 610 39,000  Level FlightAware
12:02PM 29.8900 77.5290 143° Southeast 533 613 39,000  Level FlightAware
12:03PM 29.8190 77.5940 142° Southeast 532 612 39,000  Level FlightAware
12:03PM 29.7560 77.6500 142° Southeast 531 611 39,000  Level FlightAware
12:04PM 29.6690 77.7280 142° Southeast 529 609 39,000  Level FlightAware
12:04PM 29.6220 77.7690 143° Southeast 529 609 39,000  Level FlightAware
12:05PM 29.5690 77.8170 142° Southeast 527 606 39,000  Level FlightAware
12:05PM 29.4710 77.9030 143° Southeast 527 606 39,000  Level FlightAware
12:06PM 29.4030 77.9630 142° Southeast 526 605 39,000  Level FlightAware
12:07PM 29.3050 78.0500 142° Southeast 526 605 39,000  Level FlightAware
12:08PM 29.2340 78.1130 142° Southeast 524 603 39,000  Level FlightAware
12:08PM 29.1670 78.1710 143° Southeast 527 606 39,000  Level FlightAware
12:09PM 29.1060 78.2250 142° Southeast 529 609 39,000  Level FlightAware
12:09PM 29.0160 78.3040 142° Southeast 530 610 39,000  Level FlightAware
12:10PM 28.8990 78.4060 143° Southeast 529 609 39,000  Level FlightAware
12:11PM 28.8440 78.4540 143° Southeast 529 609 39,000  Level FlightAware
12:11PM 28.8210 78.4740 143° Southeast 529 609 39,000  Level FlightAware
12:12PM 28.7120 78.5690 143° Southeast 527 606 39,000  Level FlightAware
12:13PM 28.6440 78.6290 142° Southeast 525 604 39,000  Level FlightAware
12:13PM 28.5580 78.7030 143° Southeast 522 601 39,000  Level FlightAware
12:14PM 28.4890 78.7630 143° Southeast 520 598 39,000  Level FlightAware
12:15PM 28.4280 78.8240 139° Southeast 528 608 39,000  Level FlightAware
12:15PM 28.3510 78.9120 135° Southeast 531 611 39,000  Level FlightAware
12:16PM 28.3160 78.9540 133° Southeast 531 611 39,000  Level FlightAware
12:17PM 28.2400 79.0430 134° Southeast 531 611 39,000  Level FlightAware
12:17PM 28.1700 79.1240 134° Southeast 531 611 39,000  Level FlightAware
12:18PM 28.0990 79.2080 134° Southeast 531 611 39,000  Level FlightAware
12:19PM 28.0460 79.2710 134° Southeast 531 611 39,000  Level FlightAware
12:19PM 28.0110 79.3120 134° Southeast 531 611 39,000  Level FlightAware
12:20PM 27.9410 79.3930 134° Southeast 531 611 39,000  Level FlightAware
12:20PM 27.9050 79.4360 133° Southeast 531 611 39,000  Level FlightAware
12:21PM 27.8340 79.5190 134° Southeast 531 611 39,000  Level FlightAware
12:22PM 27.7820 79.5800 134° Southeast 531 611 39,000  Level FlightAware
12:23PM 27.6950 79.6820 134° Southeast 531 611 39,000  Level FlightAware
12:24PM 27.6250 79.7630 134° Southeast 531 611 39,000  Level FlightAware
12:24PM 27.5710 79.8260 134° Southeast 531 611 39,000  Level FlightAware
12:25PM 27.5020 79.9070 134° Southeast 531 611 39,000  Level FlightAware
12:25PM 27.4670 79.9480 134° Southeast 531 611 39,000  Level FlightAware
12:28PM 27.2768 80.1656 134° Southeast  Level Estimated
12:29PM 27.1861 80.2690 135° Southeast  Level Estimated
12:30PM 27.0953 80.3722 135° Southeast  Level Estimated
12:31PM 27.0045 80.4753 135° Southeast  Level Estimated
12:32PM 26.9135 80.5781 135° Southeast  Level Estimated
12:33PM 26.8225 80.6808 135° Southeast  Level Estimated
12:34PM 26.7315 80.7834 135° Southeast  Level Estimated
12:35PM 26.6403 80.8858 135° Southeast  Level Estimated
12:36PM 26.5491 80.9880 135° Southeast  Level Estimated
12:37PM 26.4578 81.0900 135° Southeast  Level Estimated
12:38PM 26.3664 81.1919 135° Southeast  Level Estimated
12:39PM 26.2750 81.2936 135° Southeast  Level Estimated
12:40PM 26.1835 81.3952 135° Southeast  Level Estimated
12:41PM 26.0919 81.4966 135° Southeast  Level Estimated
12:42PM 26.0003 81.5979 135° Southeast  Level Estimated
12:43PM 25.9086 81.6990 135° Southeast  Level Estimated
12:44PM 25.8168 81.7999 135° Southeast  Level Estimated
12:45PM 25.7249 81.9007 135° Southeast  Level Estimated
12:46PM 25.6330 82.0013 135° Southeast  Level Estimated
12:47PM 25.5410 82.1018 135° Southeast  Level Estimated
12:48PM 25.4489 82.2021 135° Southeast  Level Estimated
12:49PM 25.3568 82.3022 135° Southeast  Level Estimated
12:50PM 25.2646 82.4023 136° Southeast  Level Estimated
12:51PM 25.1723 82.5021 136° Southeast  Level Estimated
12:52PM 25.0800 82.6018 136° Southeast  Level Estimated
12:53PM 24.9876 82.7014 136° Southeast  Level Estimated
12:54PM 24.8951 82.8008 136° Southeast  Level Estimated
12:55PM 24.8026 82.9000 136° Southeast  Level Estimated
12:56PM 24.7100 82.9992 136° Southeast  Level Estimated
12:57PM 24.6173 83.0981 136° Southeast  Level Estimated
12:58PM 24.5246 83.1969 136° Southeast  Level Estimated
12:59PM 24.4318 83.2956 136° Southeast  Level Estimated
01:00PM 24.3389 83.3941 136° Southeast  Level Estimated
01:01PM 24.2460 83.4925 136° Southeast  Level Estimated
01:01PM 24.0840 84.5410 136° Southeast 498 573 39,000  Level FlightAware
01:02PM 24.1530 83.5907 136° Southeast  Level Estimated
01:02PM 24.0200 84.6250 130° Southeast 496 571 39,000  Level FlightAware
01:03PM 23.9580 84.7050 130° Southeast 495 570 39,000  Level FlightAware
01:03PM 23.8760 84.8120 130° Southeast 493 567 39,000  Level FlightAware
01:04PM 23.8210 84.8810 131° Southeast 491 565 39,000  Level FlightAware
01:05PM 23.7680 84.9500 130° Southeast 491 565 39,000  Level FlightAware
01:05PM 23.7090 85.0270 130° Southeast 496 571 39,000  Level FlightAware
01:06PM 23.6200 85.1360 132° Southeast 489 563 39,000  Level FlightAware
01:07PM 23.5570 85.1880 143° Southeast 481 554 39,000  Level FlightAware
01:08PM 23.4820 85.2500 143° Southeast 479 551 39,000  Level FlightAware
01:08PM 23.4280 85.2950 143° Southeast 478 550 39,000  Level FlightAware
01:09PM 23.3730 85.3420 142° Southeast 478 550 39,000  Level FlightAware
01:10PM 23.2440 85.4470 143° Southeast 480 552 39,000  Level FlightAware
01:10PM 23.1880 85.4910 144° Southeast 481 554 39,000  Level FlightAware
01:11PM 23.1210 85.5480 142° Southeast 481 554 39,000  Level FlightAware
01:12PM 23.0670 85.5940 142° Southeast 481 554 39,000  Level FlightAware
01:12PM 23.0120 85.6410 142° Southeast 481 554 39,000  Level FlightAware
01:13PM 22.9590 85.6860 142° Southeast 481 554 39,000  Level FlightAware
01:14PM 22.8100 85.8010 145° Southeast 482 555 39,000  Level FlightAware
01:14PM 22.7750 85.8290 144° Southeast 481 554 39,000  Level FlightAware
01:15PM 22.6840 85.9030 143° Southeast 479 551 39,000  Level FlightAware
01:16PM 22.5750 85.9920 143° Southeast 477 549 39,000  Level FlightAware
01:17PM 22.5010 86.0510 144° Southeast 477 549 39,000  Level FlightAware
01:18PM 22.4280 86.1110 143° Southeast 479 551 39,000  Level FlightAware
01:18PM 22.3790 86.1510 143° Southeast 479 551 39,000  Level FlightAware
01:19PM 22.2540 86.2520 143° Southeast 477 549 39,000  Level FlightAware
01:20PM 22.1370 86.3460 143° Southeast 477 549 39,000  Level FlightAware
01:21PM 22.1020 86.3740 143° Southeast 476 548 39,000  Level FlightAware
01:21PM 22.0420 86.4230 143° Southeast 477 549 39,000  Level FlightAware
01:22PM 21.9860 86.4670 144° Southeast 480 552 39,000  Level FlightAware
01:22PM 21.9160 86.5230 143° Southeast 482 555 39,000  Level FlightAware
01:23PM 21.8430 86.5820 143° Southeast 483 556 39,000  Level FlightAware
01:24PM 21.7790 86.6330 143° Southeast 484 557 39,000  Level FlightAware
01:24PM 21.6860 86.7070 144° Southeast 483 556 39,000  Level FlightAware
01:25PM 21.6100 86.7680 143° Southeast 483 556 39,000  Level FlightAware
01:26PM 21.5080 86.8490 144° Southeast 482 555 39,000  Level FlightAware
01:27PM 21.4470 86.8980 143° Southeast 481 554 39,000  Level FlightAware
01:27PM 21.3760 86.9550 143° Southeast 481 554 39,000  Level FlightAware
01:28PM 21.3160 87.0020 144° Southeast 479 551 39,000  Level FlightAware
01:29PM 21.2450 87.0590 143° Southeast 478 550 39,000  Level FlightAware
01:29PM 21.1870 87.1040 144° Southeast 478 550 39,000  Level FlightAware
01:30PM 21.1310 87.1490 143° Southeast 479 551 39,000  Level FlightAware
01:31PM 21.0560 87.2090 143° Southeast 479 551 39,000  Level FlightAware
01:31PM 21.0020 87.2530 143° Southeast 479 551 39,000  Level FlightAware
01:32PM 20.8920 87.3420 143° Southeast 479 551 39,000  Level FlightAware
01:33PM 20.8380 87.3850 143° Southeast 479 551 39,000  Level FlightAware
01:34PM 20.7840 87.4290 143° Southeast 479 551 39,000  Level FlightAware
01:34PM 20.7290 87.4730 143° Southeast 479 551 39,000  Level FlightAware
01:35PM 20.6920 87.5030 143° Southeast 479 551 39,000  Level FlightAware
01:35PM 20.6380 87.5470 143° Southeast 479 551 39,000  Level FlightAware
01:36PM 20.5800 87.5930 143° Southeast 479 551 39,000  Level FlightAware
01:37PM 20.3510 87.7620 145° Southeast 465 535 39,000  Level FlightAware
01:38PM 20.2880 87.8110 144° Southeast 465 535 39,000  Level FlightAware
01:38PM 20.2310 87.8570 143° Southeast 465 535 39,000  Level FlightAware
01:39PM 20.1500 87.9180 145° Southeast 465 535 39,000  Level FlightAware
01:40PM 20.0910 87.9640 144° Southeast 466 536 39,000  Level FlightAware
01:40PM 20.0280 88.0140 143° Southeast 465 535 39,000  Level FlightAware
01:41PM 19.9770 88.0530 144° Southeast 465 535 39,000  Level FlightAware
01:41PM 19.9490 88.0740 145° Southeast 465 535 39,000  Level FlightAware
01:42PM 19.8840 88.1250 144° Southeast 465 535 39,000  Level FlightAware
01:42PM 19.8290 88.1700 142° Southeast 465 535 39,000  Level FlightAware
01:43PM 19.7750 88.2130 143° Southeast 465 535 39,000  Level FlightAware
01:44PM 19.6400 88.3160 144° Southeast 467 537 39,000  Level FlightAware
01:44PM 19.5710 88.3670 145° Southeast 469 540 39,000  Level FlightAware
01:45PM 19.4810 88.4360 144° Southeast 468 539 39,000  Level FlightAware
01:46PM 19.4220 88.4830 143° Southeast 468 539 39,000  Level FlightAware
01:47PM 19.3690 88.5260 143° Southeast 468 539 39,000  Level FlightAware
01:47PM 19.3160 88.5680 143° Southeast 468 539 39,000  Level FlightAware
01:48PM 19.2120 88.6510 143° Southeast 468 539 39,000  Level FlightAware
01:49PM 19.1380 88.7100 143° Southeast 468 539 39,000  Level FlightAware
01:50PM 19.0690 88.7650 143° Southeast 468 539 39,000  Level FlightAware
01:51PM 19.0150 88.8080 143° Southeast 468 539 39,000  Level FlightAware
01:51PM 18.9620 88.8500 143° Southeast 468 539 39,000  Level FlightAware
01:52PM 18.8740 88.9210 143° Southeast 468 539 39,000  Level FlightAware
01:53PM 18.7870 88.9900 143° Southeast 468 539 39,000  Level FlightAware
01:54PM 18.7500 89.0190 143° Southeast 468 539 39,000  Level FlightAware
01:55PM 18.6620 89.0890 143° Southeast 468 539 39,000  Level FlightAware
01:55PM 18.6090 89.1310 143° Southeast 468 539 39,000  Level FlightAware
01:58PM 18.3909 89.3369 138° Southeast  Level Estimated
01:59PM 18.2947 89.4276 138° Southeast  Level Estimated
02:00PM 18.1984 89.5181 138° Southeast  Level Estimated
02:01PM 18.1020 89.6086 138° Southeast  Level Estimated
02:02PM 18.0056 89.6990 138° Southeast  Level Estimated
02:03PM 17.9092 89.7892 138° Southeast  Level Estimated
02:04PM 17.8127 89.8794 138° Southeast  Level Estimated
02:05PM 17.7162 89.9695 138° Southeast  Level Estimated
02:06PM 17.6196 90.0595 138° Southeast  Level Estimated
02:07PM 17.5230 90.1493 138° Southeast  Level Estimated
02:08PM 17.4264 90.2391 138° Southeast  Level Estimated
02:09PM 17.3297 90.3288 138° Southeast  Level Estimated
02:10PM 17.2329 90.4184 138° Southeast  Level Estimated
02:11PM 17.1362 90.5079 139° Southeast  Level Estimated
02:12PM 17.0394 90.5973 139° Southeast  Level Estimated
02:13PM 16.9425 90.6867 139° Southeast  Level Estimated
02:14PM 16.8457 90.7759 139° Southeast  Level Estimated
02:15PM 16.7487 90.8650 139° Southeast  Level Estimated
02:16PM 16.6518 90.9540 139° Southeast  Level Estimated
02:17PM 16.5548 91.0430 139° Southeast  Level Estimated
02:18PM 16.4578 91.1319 139° Southeast  Level Estimated
02:19PM 16.3607 91.2206 139° Southeast  Level Estimated
02:20PM 16.2636 91.3093 139° Southeast  Level Estimated
02:21PM 16.1664 91.3979 139° Southeast  Level Estimated
02:22PM 16.0692 91.4864 139° Southeast  Level Estimated
02:23PM 15.9720 91.5748 139° Southeast  Level Estimated
02:24PM 15.8748 91.6632 139° Southeast  Level Estimated
02:25PM 15.7775 91.7514 139° Southeast  Level Estimated
02:26PM 15.6802 91.8396 139° Southeast  Level Estimated
02:27PM 15.5828 91.9277 139° Southeast  Level Estimated
02:28PM 15.4854 92.0157 139° Southeast  Level Estimated
02:29PM 15.3880 92.1036 139° Southeast  Level Estimated
02:30PM 15.2905 92.1914 139° Southeast  Level Estimated
02:31PM 15.1930 92.2792 139° Southeast  Level Estimated
02:32PM 15.0955 92.3669 139° Southeast  Level Estimated
02:33PM 14.9979 92.4545 139° Southeast  Level Estimated
02:34PM 14.9003 92.5420 139° Southeast  Level Estimated
02:35PM 14.8027 92.6294 139° Southeast  Level Estimated
02:36PM 14.7050 92.7167 139° Southeast  Level Estimated
02:37PM 14.6073 92.8040 139° Southeast  Level Estimated
02:38PM 14.5096 92.8912 139° Southeast  Level Estimated
02:39PM 14.4118 92.9783 139° Southeast  Level Estimated
02:40PM 14.3140 93.0654 139° Southeast  Level Estimated
02:41PM 14.2162 93.1524 139° Southeast  Level Estimated
02:42PM 14.1183 93.2393 139° Southeast  Level Estimated
02:43PM 14.0204 93.3261 139° Southeast  Level Estimated
02:44PM 13.9225 93.4128 139° Southeast  Level Estimated
02:45PM 13.8245 93.4995 139° Southeast  Level Estimated
02:46PM 13.7266 93.5861 139° Southeast  Level Estimated
02:47PM 13.6286 93.6726 139° Southeast  Level Estimated
02:48PM 13.5305 93.7591 139° Southeast  Level Estimated
02:49PM 13.4325 93.8455 139° Southeast  Level Estimated
02:50PM 13.3343 93.9318 139° Southeast  Level Estimated
02:51PM 13.2362 94.0180 139° Southeast  Level Estimated
02:52PM 13.1381 94.1042 139° Southeast  Level Estimated
02:53PM 13.0399 94.1903 139° Southeast  Level Estimated
02:54PM 12.9417 94.2763 140° Southeast  Level Estimated
02:55PM 12.8434 94.3623 140° Southeast  Level Estimated
02:56PM 12.7451 94.4482 140° Southeast  Level Estimated
02:57PM 12.6468 94.5340 140° Southeast  Level Estimated
02:58PM 12.5485 94.6198 140° Southeast  Level Estimated
02:59PM 12.4502 94.7055 140° Southeast  Level Estimated
03:00PM 12.3518 94.7912 140° Southeast  Level Estimated
03:01PM 12.2534 94.8767 140° Southeast  Level Estimated
03:02PM 12.1549 94.9622 140° Southeast  Level Estimated
03:03PM 12.0565 95.0477 140° Southeast  Level Estimated
03:04PM 11.9580 95.1331 140° Southeast  Level Estimated
03:05PM 11.8595 95.2184 140° Southeast  Level Estimated
03:06PM 11.7609 95.3036 140° Southeast  Level Estimated
03:07PM 11.6624 95.3888 140° Southeast  Level Estimated
03:08PM 11.5638 95.4740 140° Southeast  Level Estimated
03:09PM 11.4652 95.5591 140° Southeast  Level Estimated
03:10PM 11.3665 95.6441 140° Southeast  Level Estimated
03:11PM 11.2679 95.7290 140° Southeast  Level Estimated
03:12PM 11.1692 95.8139 140° Southeast  Level Estimated
03:12PM 11.4800 96.6070 140° Southeast 467 537 39,000  Level FlightAware
03:12PM 11.4620 96.6160 154° Southeast 467 537 39,000  Level FlightAware
03:13PM 11.0705 95.8988 140° Southeast  Level Estimated
03:14PM 11.3020 96.6980 153° Southeast 468 539 39,000  Level FlightAware
03:15PM 11.2150 96.7420 154° Southeast 467 537 39,000  Level FlightAware
03:15PM 11.1310 96.7850 153° Southeast 467 537 39,000  Level FlightAware
03:16PM 11.0240 96.8390 154° Southeast 459 528 39,000  Level FlightAware
03:17PM 10.9800 96.8610 154° Southeast 460 529 39,000  Level FlightAware
03:18PM 10.8660 96.9180 154° Southeast 463 533 39,000  Level FlightAware
03:19PM 10.7430 96.9800 154° Southeast 467 537 39,000  Level FlightAware
03:19PM 10.6790 97.0130 153° Southeast 465 535 39,000  Level FlightAware
03:20PM 10.5800 97.0630 154° Southeast 465 535 39,000  Level FlightAware
03:21PM 10.5190 97.0940 153° Southeast 465 535 39,000  Level FlightAware
03:21PM 10.4490 97.1290 154° Southeast 464 534 39,000  Level FlightAware
03:22PM 10.3190 97.1950 153° Southeast 464 534 39,000  Level FlightAware
03:23PM 10.2870 97.2110 154° Southeast 464 534 39,000  Level FlightAware
03:23PM 10.2070 97.2510 154° Southeast 466 536 39,000  Level FlightAware
03:24PM 10.1210 97.2940 154° Southeast 466 536 39,000  Level FlightAware
03:24PM 10.0730 97.3180 154° Southeast 466 536 39,000  Level FlightAware
03:25PM 10.0290 97.3400 154° Southeast 469 540 39,000  Level FlightAware
03:25PM 9.9590 97.3760 153° Southeast 470 541 39,000  Level FlightAware
03:26PM 9.9000 97.4070 153° Southeast 470 541 39,000  Level FlightAware
03:27PM 9.8220 97.4450 154° Southeast 470 541 39,000  Level FlightAware
03:27PM 9.7350 97.4900 153° Southeast 470 541 39,000  Level FlightAware
03:28PM 9.6650 97.5250 154° Southeast 466 536 39,000  Level FlightAware
03:28PM 9.6030 97.5560 154° Southeast 465 535 39,000  Level FlightAware
03:29PM 9.5270 97.5950 153° Southeast 464 534 39,000  Level FlightAware
03:30PM 9.4600 97.6290 153° Southeast 460 529 39,000  Level FlightAware
03:30PM 9.3920 97.6720 148° Southeast 461 531 39,000  Level FlightAware
03:31PM 9.3400 97.7080 146° Southeast 462 532 39,000  Level FlightAware
03:31PM 9.2680 97.7570 146° Southeast 461 531 39,000  Level FlightAware
03:32PM 9.2220 97.7890 146° Southeast 460 529 39,000  Level FlightAware
03:33PM 9.1490 97.8390 146° Southeast 459 528 39,000  Level FlightAware
03:33PM 9.0850 97.8830 146° Southeast 460 529 39,000  Level FlightAware
03:34PM 9.0210 97.9280 145° Southeast 461 531 39,000  Level FlightAware
03:34PM 8.9590 97.9700 146° Southeast 463 533 39,000  Level FlightAware
03:35PM 8.8930 98.0160 145° Southeast 463 533 39,000  Level FlightAware
03:36PM 8.8380 98.0540 146° Southeast 461 531 39,000  Level FlightAware
03:36PM 8.7670 98.1020 146° Southeast 459 528 39,000  Level FlightAware
03:37PM 8.7000 98.1480 146° Southeast 460 529 39,000  Level FlightAware
03:38PM 8.6190 98.2040 146° Southeast 460 529 39,000  Level FlightAware
03:38PM 8.5270 98.2670 146° Southeast 460 529 39,000  Level FlightAware
03:39PM 8.4670 98.3090 145° Southeast 461 531 39,000  Level FlightAware
03:40PM 8.3950 98.3580 146° Southeast 462 532 39,000  Level FlightAware
03:40PM 8.3340 98.4000 146° Southeast 462 532 39,000  Level FlightAware
03:41PM 8.2790 98.4370 146° Southeast 464 534 39,000  Level FlightAware
03:42PM 8.1730 98.5100 146° Southeast 462 532 39,000  Level FlightAware
03:42PM 8.1180 98.5480 146° Southeast 462 532 39,000  Level FlightAware
03:43PM 8.0410 98.6000 146° Southeast 462 532 39,000  Level FlightAware
03:44PM 7.9670 98.6510 146° Southeast 459 528 39,000  Level FlightAware
03:44PM 7.9220 98.6820 146° Southeast 458 527 39,000  Level FlightAware
03:45PM 7.8690 98.7180 146° Southeast 456 525 39,000  Level FlightAware
03:45PM 7.7950 98.7510 156° South 455 524 39,000  Level FlightAware
03:46PM 7.7220 98.7790 159° South 456 525 39,000  Level FlightAware
03:47PM 7.6340 98.8110 160° South 456 525 39,000  Level FlightAware
03:47PM 7.5500 98.8430 159° South 455 524 39,000  Level FlightAware
03:48PM 7.4830 98.8830 149° Southeast 455 524 39,000  Level FlightAware
03:49PM 7.3780 98.9600 144° Southeast 457 526 39,000  Level FlightAware
03:50PM 7.3180 99.0040 144° Southeast 456 525 39,000  Level FlightAware
03:50PM 7.2580 99.0460 145° Southeast 454 522 39,000  Level FlightAware
03:51PM 7.2000 99.0890 144° Southeast 453 521 39,000  Level FlightAware
03:52PM 7.0980 99.1620 145° Southeast 452 520 39,000  Level FlightAware
03:52PM 7.0370 99.2060 144° Southeast 454 522 39,000  Level FlightAware
03:53PM 6.9890 99.2410 144° Southeast 454 522 39,000  Level FlightAware
03:53PM 6.9280 99.2850 144° Southeast 455 524 39,000  Level FlightAware
03:54PM 6.8590 99.3340 145° Southeast 455 524 39,000  Level FlightAware
03:55PM 6.8040 99.3740 144° Southeast 455 524 39,000  Level FlightAware
03:55PM 6.7320 99.4260 144° Southeast 453 521 39,000  Level FlightAware
03:56PM 6.6700 99.4710 144° Southeast 456 525 39,000  Level FlightAware
03:56PM 6.6310 99.4990 145° Southeast 457 526 39,000  Level FlightAware
03:57PM 6.5640 99.5460 145° Southeast 458 527 39,000  Level FlightAware
03:58PM 6.5040 99.5880 145° Southeast 459 528 39,000  Level FlightAware
03:58PM 6.4140 99.6510 145° Southeast 462 532 39,000  Level FlightAware
03:59PM 6.3700 99.6820 145° Southeast 462 532 39,000  Level FlightAware
04:00PM 6.2920 99.7370 145° Southeast 461 531 39,000  Level FlightAware
04:01PM 6.1600 99.8310 145° Southeast 464 534 39,000  Level FlightAware
04:01PM 6.1090 99.8690 143° Southeast 461 531 39,000  Level FlightAware
04:02PM 5.9990 99.9510 143° Southeast 460 529 39,000  Level FlightAware
04:03PM 5.9310 100.0010 144° Southeast 461 531 39,000  Level FlightAware
04:04PM 5.8610 100.0530 144° Southeast 461 531 39,000  Level FlightAware
04:04PM 5.7910 100.1050 144° Southeast 461 531 39,000  Level FlightAware
04:05PM 5.7320 100.1490 143° Southeast 462 532 39,000  Level FlightAware
04:05PM 5.6890 100.1810 143° Southeast 459 528 39,000  Level FlightAware
04:06PM 5.6200 100.2320 144° Southeast 458 527 39,000  Level FlightAware
04:07PM 5.5620 100.2740 144° Southeast 458 527 39,000  Level FlightAware
04:07PM 5.5200 100.3050 144° Southeast 456 525 39,000  Level FlightAware
04:08PM 5.4580 100.3510 144° Southeast 454 522 39,000  Level FlightAware
04:08PM 5.3900 100.4010 144° Southeast 453 521 39,000  Level FlightAware
04:09PM 5.2970 100.4690 144° Southeast 456 525 39,000  Level FlightAware
04:10PM 5.2380 100.5120 144° Southeast 457 526 39,000  Level FlightAware
04:10PM 5.1680 100.5630 144° Southeast 455 524 39,000  Level FlightAware
04:11PM 5.1180 100.6000 144° Southeast 456 525 39,000  Level FlightAware
04:11PM 5.0680 100.6370 144° Southeast 457 526 39,000  Level FlightAware
04:12PM 4.9950 100.6880 145° Southeast 458 527 39,000  Level FlightAware
04:13PM 4.9430 100.7140 154° Southeast 459 528 39,000  Level FlightAware
04:13PM 4.8530 100.7590 154° Southeast 459 528 39,000  Level FlightAware
04:14PM 4.8050 100.7830 154° Southeast 459 528 39,000  Level FlightAware
04:14PM 4.7280 100.8210 154° Southeast 457 526 39,000  Level FlightAware
04:15PM 4.6250 100.8720 154° Southeast 456 525 39,000  Level FlightAware
04:16PM 4.5680 100.9000 154° Southeast 456 525 39,000  Level FlightAware
04:16PM 4.5160 100.9260 154° Southeast 455 524 39,000  Level FlightAware
04:17PM 4.3880 100.9890 154° Southeast 455 524 39,000  Level FlightAware
04:18PM 4.3220 101.0220 153° Southeast 455 524 39,000  Level FlightAware
04:19PM 4.2570 101.0540 154° Southeast 455 524 39,000  Level FlightAware
04:19PM 4.1830 101.0910 153° Southeast 452 520 39,000  Level FlightAware
04:20PM 4.1230 101.1210 153° Southeast 451 519 39,000  Level FlightAware
04:20PM 4.0810 101.1420 153° Southeast 452 520 39,000  Level FlightAware
04:21PM 3.9880 101.1870 154° Southeast 452 520 39,000  Level FlightAware
04:22PM 3.8760 101.2430 153° Southeast 452 520 39,000  Level FlightAware
04:22PM 3.8160 101.2730 153° Southeast 451 519 39,000  Level FlightAware
04:23PM 3.7200 101.3330 148° Southeast 452 520 39,000  Level FlightAware
04:24PM 3.6750 101.3700 141° Southeast 450 518 39,000  Level FlightAware
04:24PM 3.6250 101.4110 141° Southeast 450 518 39,000  Level FlightAware
04:25PM 3.5240 101.4940 141° Southeast 451 519 39,000  Level FlightAware
04:26PM 3.4640 101.5420 141° Southeast 452 520 39,000  Level FlightAware
04:27PM 3.4020 101.5930 141° Southeast 454 522 39,000  Level FlightAware
04:27PM 3.3480 101.6360 142° Southeast 457 526 39,000  Level FlightAware
04:28PM 3.2940 101.6800 141° Southeast 458 527 39,000  Level FlightAware
04:28PM 3.2430 101.7210 141° Southeast 458 527 39,000  Level FlightAware
04:29PM 3.2010 101.7540 142° Southeast 458 527 39,000  Level FlightAware
04:31PM 2.9840 101.9280 141° Southeast 452 520 39,000  Level FlightAware
04:31PM 2.9590 101.9470 143° Southeast 458 527 39,000  Level FlightAware
04:32PM 2.8990 101.9950 141° Southeast 454 522 39,000  Level FlightAware
04:33PM 2.8040 102.0710 141° Southeast 456 525 39,000  Level FlightAware
04:33PM 2.7680 102.1000 141° Southeast 457 526 39,000  Level FlightAware
04:34PM 2.7020 102.1500 143° Southeast 457 526 39,000  Level FlightAware
04:34PM 2.6470 102.1920 143° Southeast 457 526 39,000  Level FlightAware
04:35PM 2.5660 102.2550 142° Southeast 456 525 39,000  Level FlightAware
04:36PM 2.5020 102.3040 143° Southeast 458 527 39,000  Level FlightAware
04:36PM 2.4640 102.3330 143° Southeast 459 528 39,000  Level FlightAware
04:37PM 2.4070 102.3770 142° Southeast 461 531 39,000  Level FlightAware
04:37PM 2.3750 102.4010 143° Southeast 461 531 39,000 -840 Level FlightAware
04:37PM 2.3270 102.4380 142° Southeast 462 532 38,300 -1,560 Descending FlightAware
04:38PM 2.2310 102.5120 142° Southeast 472 543 36,800 -2,040 Descending FlightAware
04:39PM 2.1600 102.5670 142° Southeast 478 550 35,100 -1,620 Descending FlightAware
04:39PM 2.1230 102.5960 142° Southeast 478 550 35,100  Level FlightAware
04:40PM 2.0350 102.6640 142° Southeast 478 550 35,100  Level FlightAware
04:41PM 1.9630 102.7210 142° Southeast 478 550 35,100  Level FlightAware
04:42PM 1.9120 102.7600 143° Southeast 478 550 35,100  Level FlightAware
04:42PM 1.8590 102.8020 142° Southeast 478 550 35,100  Level FlightAware
04:43PM 1.8060 102.8440 142° Southeast 478 550 35,100 -3,360 Level FlightAware
04:44PM 1.6780 103.0020 129° Southeast 473 544 30,100 -2,880 Descending FlightAware
04:45PM 1.6260 103.1000 118° Southeast 423 487 30,000 -240 Descending FlightAware
04:45PM 1.5820 103.1530 130° Southeast 395 455 29,800 -840 Descending FlightAware
04:46PM 1.5210 103.1800 156° South 390 449 29,000 -1,980 Descending FlightAware
04:47PM 1.4260 103.2340 150° Southeast 372 428 26,600 -2,340 Descending FlightAware
04:48PM 1.3760 103.2620 151° Southeast 363 418 25,300 -2,220 Descending FlightAware
04:49PM 1.2740 103.3320 146° Southeast 352 405 22,600 -1,860 Descending FlightAware
04:50PM 1.2010 103.3840 145° Southeast 344 396 21,300 -1,440 Descending FlightAware
04:51PM 1.1370 103.4640 129° Southeast 333 383 19,600 -1,500 Descending FlightAware
04:52PM 1.1370 103.5130 90° East 326 375 18,800 -1,680 Descending FlightAware
04:52PM 1.1380 103.5580 89° East 323 372 17,900 -2,220 Descending FlightAware
04:52PM 1.1380 103.5950 90° East 316 364 16,800 -2,220 Descending FlightAware
04:53PM 1.1390 103.6530 89° East 314 361 15,500 -1,620 Descending FlightAware
04:54PM 1.1410 103.7440 89° East 308 354 14,000 -1,440 Descending FlightAware
04:55PM 1.1420 103.8220 89° East 302 348 12,700 -1,380 Descending FlightAware
04:56PM 1.1500 103.8970 84° East 299 344 11,500 -1,080 Descending FlightAware
04:57PM 1.1700 103.9330 61° Northeast 281 323 11,200 -660 Descending FlightAware
04:57PM 1.1910 103.9720 62° Northeast 266 306 10,800 -840 Descending FlightAware
04:58PM 1.2080 104.0030 61° Northeast 269 310 10,300 -720 Descending FlightAware
04:58PM 1.2330 104.0480 61° Northeast 272 313 10,000 -540 Descending FlightAware
04:59PM 1.2480 104.0730 59° Northeast 273 314 9,800 -840 Descending FlightAware
04:59PM 1.2650 104.1040 61° Northeast 270 311 9,300 -1,020 Descending FlightAware
04:59PM 1.2770 104.1250 60° Northeast 269 310 9,000 -1,080 Descending FlightAware
05:00PM 1.2970 104.1600 60° Northeast 264 304 8,400 -1,140 Descending FlightAware
05:00PM 1.3170 104.1930 59° Northeast 262 302 7,800 -1,380 Descending FlightAware
05:01PM 1.3430 104.2080 30° Northeast 260 299 7,100 -1,740 Descending FlightAware
05:01PM 1.3750 104.2160 14° North 252 290 6,300 -1,740 Descending FlightAware
05:02PM 1.4100 104.2170 North 251 289 5,500 -1,380 Descending FlightAware
05:02PM 1.4410 104.2140 354° North 250 288 5,000 -960 Descending FlightAware
05:03PM 1.4680 104.2090 350° North 246 283 4,700 -720 Descending FlightAware
05:03PM 1.4820 104.2080 356° North 236 272 4,600 -660 Descending FlightAware
05:03PM 1.5100 104.2090 North 220 253 4,300 -360 Descending FlightAware
05:04PM 1.5590 104.2090 360° North 216 249 4,200 -120 Descending FlightAware
05:05PM 1.5810 104.2090 360° North 218 251 4,200  Level FlightAware
05:05PM 1.6240 104.2070 357° North 216 249 4,200  Level FlightAware
05:06PM 1.6400 104.1910 315° West 211 243 4,200 -300 Level FlightAware
05:06PM 1.6360 104.1580 263° West 200 230 3,900 -540 Descending FlightAware
05:07PM 1.6190 104.1360 232° Southwest 200 230 3,600 -540 Descending FlightAware
05:07PM 1.5950 104.1070 230° Southwest 196 226 3,300 -480 Descending FlightAware
05:08PM 1.5800 104.0890 230° Southwest 198 228 3,100 -600 Descending FlightAware
05:09PM 1.5550 104.0650 224° Southwest 196 226 2,700 -600 Descending FlightAware
05:09PM 1.5320 104.0550 203° Southwest 195 224 2,500 -480 Descending FlightAware
05:10PM 1.5030 104.0430 202° Southwest 192 221 2,200 -360 Descending FlightAware
05:10PM 1.4850 104.0350 204° Southwest 168 193 2,200 -360 Level FlightAware
05:11PM 1.4600 104.0240 204° Southwest 161 185 1,900 -600 Descending FlightAware
05:11PM 1.4460 104.0180 203° Southwest 146 168 1,600 -780 Descending FlightAware
05:11PM 1.4250 104.0100 201° Southwest 131 151 1,200 -780 Descending FlightAware
05:12PM 1.4100 104.0030 205° Southwest 138 159 900 -660 Descending FlightAware
05:12PM 1.3930 103.9960 202° Southwest 134 154 600 -720 Descending FlightAware
05:13PM 1.3750 103.9880 204° Southwest 140 161 200 -780 Descending FlightAware